<?xml version="1.0" encoding="UTF-8"?>
<gpx version="1.1" creator="https://www.youtrack.es" xsi:schemaLocation="http://www.topografix.com/GPX/1/1 http://www.topografix.com/GPX/1/1/gpx.xsd http://www.garmin.com/xmlschemas/GpxExtensions/v3 http://www.garmin.com/xmlschemas/GpxExtensionsv3.xsd http://www.garmin.com/xmlschemas/TrackPointExtension/v1 http://www.garmin.com/xmlschemas/TrackPointExtensionv1.xsd" xmlns:gpxtpx="http://www.garmin.com/xmlschemas/TrackPointExtension/v1" xmlns:gpxx="http://www.garmin.com/xmlschemas/GpxExtensions/v3" xmlns:xsi="http://www.w3.org/2001/XMLSchema-instance">
  <metadata>
    <link href="https://www.youtrack.es">
      <text>YouTrack.es</text>
    </link>
    <time>2026-05-08T12:34:42Z</time>
  </metadata>
  <trk>
    <src>https://www.youtrack.es</src>
    <link href="https://www.youtrack.es/ruta/5301-la-centenera">
      <text>YouTrack.es</text>
    </link>
    <trkseg>
      <trkpt lat="40.999158" lon="-3.396815">
        <ele>1860.0</ele>
        <time>2018-02-25T14:52:43Z</time>
      </trkpt>
      <trkpt lat="40.999158" lon="-3.396815">
        <ele>1857.0</ele>
        <time>2018-02-25T14:52:44Z</time>
      </trkpt>
      <trkpt lat="40.999019" lon="-3.397204">
        <ele>1855.0</ele>
        <time>2018-02-25T14:59:43Z</time>
      </trkpt>
      <trkpt lat="40.9989" lon="-3.397347">
        <ele>1853.0</ele>
        <time>2018-02-25T14:59:51Z</time>
      </trkpt>
      <trkpt lat="40.998792" lon="-3.397435">
        <ele>1850.0</ele>
        <time>2018-02-25T15:00:02Z</time>
      </trkpt>
      <trkpt lat="40.99873" lon="-3.397501">
        <ele>1847.0</ele>
        <time>2018-02-25T15:00:11Z</time>
      </trkpt>
      <trkpt lat="40.99873" lon="-3.397501">
        <ele>1846.0</ele>
        <time>2018-02-25T15:00:20Z</time>
      </trkpt>
      <trkpt lat="40.99873" lon="-3.397501">
        <ele>1838.0</ele>
        <time>2018-02-25T15:00:27Z</time>
      </trkpt>
      <trkpt lat="40.998673" lon="-3.397598">
        <ele>1832.0</ele>
        <time>2018-02-25T15:00:27Z</time>
      </trkpt>
      <trkpt lat="40.998459" lon="-3.397844">
        <ele>1831.0</ele>
        <time>2018-02-25T15:01:05Z</time>
      </trkpt>
      <trkpt lat="40.99828" lon="-3.398142">
        <ele>1831.0</ele>
        <time>2018-02-25T15:01:40Z</time>
      </trkpt>
      <trkpt lat="40.998189" lon="-3.398342">
        <ele>1824.0</ele>
        <time>2018-02-25T15:01:57Z</time>
      </trkpt>
      <trkpt lat="40.998109" lon="-3.398474">
        <ele>1819.0</ele>
        <time>2018-02-25T15:02:12Z</time>
      </trkpt>
      <trkpt lat="40.99799" lon="-3.398616">
        <ele>1814.0</ele>
        <time>2018-02-25T15:02:26Z</time>
      </trkpt>
      <trkpt lat="40.997922" lon="-3.398753">
        <ele>1815.0</ele>
        <time>2018-02-25T15:02:40Z</time>
      </trkpt>
      <trkpt lat="40.997836" lon="-3.39892">
        <ele>1812.0</ele>
        <time>2018-02-25T15:02:59Z</time>
      </trkpt>
      <trkpt lat="40.997594" lon="-3.399197">
        <ele>1810.0</ele>
        <time>2018-02-25T15:03:43Z</time>
      </trkpt>
      <trkpt lat="40.997536" lon="-3.399281">
        <ele>1808.0</ele>
        <time>2018-02-25T15:03:50Z</time>
      </trkpt>
      <trkpt lat="40.997369" lon="-3.399436">
        <ele>1804.0</ele>
        <time>2018-02-25T15:04:06Z</time>
      </trkpt>
      <trkpt lat="40.997212" lon="-3.399561">
        <ele>1803.0</ele>
        <time>2018-02-25T15:04:21Z</time>
      </trkpt>
      <trkpt lat="40.997064" lon="-3.399699">
        <ele>1804.0</ele>
        <time>2018-02-25T15:04:36Z</time>
      </trkpt>
      <trkpt lat="40.996915" lon="-3.399856">
        <ele>1807.0</ele>
        <time>2018-02-25T15:04:50Z</time>
      </trkpt>
      <trkpt lat="40.996879" lon="-3.399893">
        <ele>1810.0</ele>
        <time>2018-02-25T15:04:54Z</time>
      </trkpt>
      <trkpt lat="40.996879" lon="-3.399893">
        <ele>1809.0</ele>
        <time>2018-02-25T15:05:01Z</time>
      </trkpt>
      <trkpt lat="40.996879" lon="-3.399893">
        <ele>1810.0</ele>
        <time>2018-02-25T15:06:25Z</time>
      </trkpt>
      <trkpt lat="40.996674" lon="-3.400113">
        <ele>1811.0</ele>
        <time>2018-02-25T15:06:25Z</time>
      </trkpt>
      <trkpt lat="40.996447" lon="-3.400338">
        <ele>1807.0</ele>
        <time>2018-02-25T15:07:24Z</time>
      </trkpt>
      <trkpt lat="40.996241" lon="-3.400599">
        <ele>1807.0</ele>
        <time>2018-02-25T15:08:07Z</time>
      </trkpt>
      <trkpt lat="40.996066" lon="-3.400903">
        <ele>1809.0</ele>
        <time>2018-02-25T15:09:09Z</time>
      </trkpt>
      <trkpt lat="40.995891" lon="-3.401249">
        <ele>1803.0</ele>
        <time>2018-02-25T15:09:53Z</time>
      </trkpt>
      <trkpt lat="40.995741" lon="-3.401353">
        <ele>1801.0</ele>
        <time>2018-02-25T15:10:09Z</time>
      </trkpt>
      <trkpt lat="40.995633" lon="-3.401521">
        <ele>1797.0</ele>
        <time>2018-02-25T15:10:28Z</time>
      </trkpt>
      <trkpt lat="40.995533" lon="-3.40161">
        <ele>1786.0</ele>
        <time>2018-02-25T15:10:45Z</time>
      </trkpt>
      <trkpt lat="40.995278" lon="-3.4018">
        <ele>1784.0</ele>
        <time>2018-02-25T15:11:25Z</time>
      </trkpt>
      <trkpt lat="40.995062" lon="-3.402049">
        <ele>1781.0</ele>
        <time>2018-02-25T15:12:14Z</time>
      </trkpt>
      <trkpt lat="40.99502" lon="-3.40221">
        <ele>1781.0</ele>
        <time>2018-02-25T15:12:27Z</time>
      </trkpt>
      <trkpt lat="40.994999" lon="-3.402347">
        <ele>1775.0</ele>
        <time>2018-02-25T15:12:41Z</time>
      </trkpt>
      <trkpt lat="40.994846" lon="-3.402679">
        <ele>1776.0</ele>
        <time>2018-02-25T15:13:48Z</time>
      </trkpt>
      <trkpt lat="40.994784" lon="-3.402937">
        <ele>1775.0</ele>
        <time>2018-02-25T15:14:11Z</time>
      </trkpt>
      <trkpt lat="40.994735" lon="-3.403056">
        <ele>1770.0</ele>
        <time>2018-02-25T15:14:22Z</time>
      </trkpt>
      <trkpt lat="40.994735" lon="-3.403056">
        <ele>1769.0</ele>
        <time>2018-02-25T15:14:30Z</time>
      </trkpt>
      <trkpt lat="40.994735" lon="-3.403056">
        <ele>1769.0</ele>
        <time>2018-02-25T15:14:36Z</time>
      </trkpt>
      <trkpt lat="40.994739" lon="-3.403185">
        <ele>1758.0</ele>
        <time>2018-02-25T15:14:36Z</time>
      </trkpt>
      <trkpt lat="40.994671" lon="-3.403324">
        <ele>1757.0</ele>
        <time>2018-02-25T15:14:49Z</time>
      </trkpt>
      <trkpt lat="40.994617" lon="-3.403554">
        <ele>1750.0</ele>
        <time>2018-02-25T15:15:10Z</time>
      </trkpt>
      <trkpt lat="40.994607" lon="-3.403581">
        <ele>1747.0</ele>
        <time>2018-02-25T15:15:12Z</time>
      </trkpt>
      <trkpt lat="40.994607" lon="-3.403581">
        <ele>1748.0</ele>
        <time>2018-02-25T15:15:20Z</time>
      </trkpt>
      <trkpt lat="40.994607" lon="-3.403581">
        <ele>1750.0</ele>
        <time>2018-02-25T15:15:30Z</time>
      </trkpt>
      <trkpt lat="40.994547" lon="-3.403674">
        <ele>1749.0</ele>
        <time>2018-02-25T15:15:30Z</time>
      </trkpt>
      <trkpt lat="40.994613" lon="-3.403813">
        <ele>1748.0</ele>
        <time>2018-02-25T15:15:42Z</time>
      </trkpt>
      <trkpt lat="40.994613" lon="-3.403813">
        <ele>1748.0</ele>
        <time>2018-02-25T15:17:45Z</time>
      </trkpt>
      <trkpt lat="40.994518" lon="-3.404176">
        <ele>1749.0</ele>
        <time>2018-02-25T15:17:54Z</time>
      </trkpt>
      <trkpt lat="40.994458" lon="-3.404352">
        <ele>1749.0</ele>
        <time>2018-02-25T15:18:06Z</time>
      </trkpt>
      <trkpt lat="40.994459" lon="-3.404522">
        <ele>1745.0</ele>
        <time>2018-02-25T15:18:20Z</time>
      </trkpt>
      <trkpt lat="40.994483" lon="-3.404734">
        <ele>1744.0</ele>
        <time>2018-02-25T15:18:33Z</time>
      </trkpt>
      <trkpt lat="40.9944" lon="-3.404973">
        <ele>1739.0</ele>
        <time>2018-02-25T15:18:50Z</time>
      </trkpt>
      <trkpt lat="40.994363" lon="-3.405186">
        <ele>1735.0</ele>
        <time>2018-02-25T15:19:02Z</time>
      </trkpt>
      <trkpt lat="40.994338" lon="-3.405439">
        <ele>1731.0</ele>
        <time>2018-02-25T15:19:16Z</time>
      </trkpt>
      <trkpt lat="40.994335" lon="-3.405668">
        <ele>1731.0</ele>
        <time>2018-02-25T15:19:30Z</time>
      </trkpt>
      <trkpt lat="40.994293" lon="-3.405794">
        <ele>1731.0</ele>
        <time>2018-02-25T15:19:39Z</time>
      </trkpt>
      <trkpt lat="40.994293" lon="-3.405794">
        <ele>1733.0</ele>
        <time>2018-02-25T15:19:48Z</time>
      </trkpt>
      <trkpt lat="40.994293" lon="-3.405794">
        <ele>1734.0</ele>
        <time>2018-02-25T15:19:52Z</time>
      </trkpt>
      <trkpt lat="40.994243" lon="-3.405868">
        <ele>1724.0</ele>
        <time>2018-02-25T15:19:52Z</time>
      </trkpt>
      <trkpt lat="40.994126" lon="-3.405993">
        <ele>1725.0</ele>
        <time>2018-02-25T15:20:02Z</time>
      </trkpt>
      <trkpt lat="40.994094" lon="-3.406197">
        <ele>1723.0</ele>
        <time>2018-02-25T15:20:16Z</time>
      </trkpt>
      <trkpt lat="40.994044" lon="-3.406424">
        <ele>1715.0</ele>
        <time>2018-02-25T15:20:31Z</time>
      </trkpt>
      <trkpt lat="40.993947" lon="-3.406517">
        <ele>1710.0</ele>
        <time>2018-02-25T15:20:44Z</time>
      </trkpt>
      <trkpt lat="40.993947" lon="-3.406517">
        <ele>1711.0</ele>
        <time>2018-02-25T15:20:51Z</time>
      </trkpt>
      <trkpt lat="40.993947" lon="-3.406517">
        <ele>1716.0</ele>
        <time>2018-02-25T15:21:45Z</time>
      </trkpt>
      <trkpt lat="40.993732" lon="-3.406795">
        <ele>1715.0</ele>
        <time>2018-02-25T15:21:45Z</time>
      </trkpt>
      <trkpt lat="40.993713" lon="-3.406895">
        <ele>1713.0</ele>
        <time>2018-02-25T15:21:53Z</time>
      </trkpt>
      <trkpt lat="40.993574" lon="-3.407162">
        <ele>1712.0</ele>
        <time>2018-02-25T15:22:11Z</time>
      </trkpt>
      <trkpt lat="40.993506" lon="-3.407335">
        <ele>1704.0</ele>
        <time>2018-02-25T15:22:26Z</time>
      </trkpt>
      <trkpt lat="40.993379" lon="-3.407556">
        <ele>1705.0</ele>
        <time>2018-02-25T15:22:39Z</time>
      </trkpt>
      <trkpt lat="40.993266" lon="-3.407635">
        <ele>1709.0</ele>
        <time>2018-02-25T15:22:50Z</time>
      </trkpt>
      <trkpt lat="40.993194" lon="-3.407888">
        <ele>1712.0</ele>
        <time>2018-02-25T15:23:09Z</time>
      </trkpt>
      <trkpt lat="40.993133" lon="-3.408081">
        <ele>1712.0</ele>
        <time>2018-02-25T15:23:21Z</time>
      </trkpt>
      <trkpt lat="40.993086" lon="-3.408269">
        <ele>1713.0</ele>
        <time>2018-02-25T15:23:34Z</time>
      </trkpt>
      <trkpt lat="40.993054" lon="-3.408458">
        <ele>1717.0</ele>
        <time>2018-02-25T15:23:50Z</time>
      </trkpt>
      <trkpt lat="40.993019" lon="-3.408684">
        <ele>1716.0</ele>
        <time>2018-02-25T15:24:08Z</time>
      </trkpt>
      <trkpt lat="40.992925" lon="-3.408891">
        <ele>1716.0</ele>
        <time>2018-02-25T15:24:25Z</time>
      </trkpt>
      <trkpt lat="40.992776" lon="-3.409104">
        <ele>1706.0</ele>
        <time>2018-02-25T15:24:43Z</time>
      </trkpt>
      <trkpt lat="40.992671" lon="-3.40926">
        <ele>1703.0</ele>
        <time>2018-02-25T15:24:53Z</time>
      </trkpt>
      <trkpt lat="40.992517" lon="-3.409429">
        <ele>1705.0</ele>
        <time>2018-02-25T15:25:09Z</time>
      </trkpt>
      <trkpt lat="40.9924" lon="-3.409625">
        <ele>1708.0</ele>
        <time>2018-02-25T15:25:26Z</time>
      </trkpt>
      <trkpt lat="40.99216" lon="-3.409768">
        <ele>1705.0</ele>
        <time>2018-02-25T15:26:05Z</time>
      </trkpt>
      <trkpt lat="40.992121" lon="-3.409897">
        <ele>1711.0</ele>
        <time>2018-02-25T15:26:20Z</time>
      </trkpt>
      <trkpt lat="40.992046" lon="-3.410051">
        <ele>1712.0</ele>
        <time>2018-02-25T15:26:33Z</time>
      </trkpt>
      <trkpt lat="40.992005" lon="-3.410225">
        <ele>1710.0</ele>
        <time>2018-02-25T15:26:49Z</time>
      </trkpt>
      <trkpt lat="40.991984" lon="-3.410319">
        <ele>1708.0</ele>
        <time>2018-02-25T15:26:59Z</time>
      </trkpt>
      <trkpt lat="40.991984" lon="-3.410319">
        <ele>1709.0</ele>
        <time>2018-02-25T15:27:06Z</time>
      </trkpt>
      <trkpt lat="40.991984" lon="-3.410319">
        <ele>1698.0</ele>
        <time>2018-02-25T15:27:12Z</time>
      </trkpt>
      <trkpt lat="40.991986" lon="-3.410422">
        <ele>1697.0</ele>
        <time>2018-02-25T15:27:12Z</time>
      </trkpt>
      <trkpt lat="40.991973" lon="-3.410695">
        <ele>1694.0</ele>
        <time>2018-02-25T15:27:34Z</time>
      </trkpt>
      <trkpt lat="40.991919" lon="-3.410893">
        <ele>1695.0</ele>
        <time>2018-02-25T15:27:47Z</time>
      </trkpt>
      <trkpt lat="40.991727" lon="-3.410967">
        <ele>1698.0</ele>
        <time>2018-02-25T15:28:07Z</time>
      </trkpt>
      <trkpt lat="40.991448" lon="-3.411123">
        <ele>1700.0</ele>
        <time>2018-02-25T15:28:52Z</time>
      </trkpt>
      <trkpt lat="40.991355" lon="-3.411335">
        <ele>1700.0</ele>
        <time>2018-02-25T15:29:07Z</time>
      </trkpt>
      <trkpt lat="40.991269" lon="-3.411587">
        <ele>1707.0</ele>
        <time>2018-02-25T15:29:26Z</time>
      </trkpt>
      <trkpt lat="40.991255" lon="-3.411794">
        <ele>1707.0</ele>
        <time>2018-02-25T15:29:45Z</time>
      </trkpt>
      <trkpt lat="40.991185" lon="-3.412038">
        <ele>1707.0</ele>
        <time>2018-02-25T15:30:06Z</time>
      </trkpt>
      <trkpt lat="40.991245" lon="-3.412137">
        <ele>1708.0</ele>
        <time>2018-02-25T15:30:18Z</time>
      </trkpt>
      <trkpt lat="40.991245" lon="-3.412137">
        <ele>1708.0</ele>
        <time>2018-02-25T15:30:25Z</time>
      </trkpt>
      <trkpt lat="40.991245" lon="-3.412137">
        <ele>1708.0</ele>
        <time>2018-02-25T15:30:30Z</time>
      </trkpt>
      <trkpt lat="40.991222" lon="-3.412255">
        <ele>1711.0</ele>
        <time>2018-02-25T15:30:30Z</time>
      </trkpt>
      <trkpt lat="40.991091" lon="-3.412474">
        <ele>1712.0</ele>
        <time>2018-02-25T15:30:46Z</time>
      </trkpt>
      <trkpt lat="40.991076" lon="-3.412655">
        <ele>1703.0</ele>
        <time>2018-02-25T15:30:59Z</time>
      </trkpt>
      <trkpt lat="40.991314" lon="-3.412812">
        <ele>1703.0</ele>
        <time>2018-02-25T15:32:18Z</time>
      </trkpt>
      <trkpt lat="40.991245" lon="-3.413211">
        <ele>1706.0</ele>
        <time>2018-02-25T15:33:13Z</time>
      </trkpt>
      <trkpt lat="40.991259" lon="-3.413394">
        <ele>1705.0</ele>
        <time>2018-02-25T15:33:27Z</time>
      </trkpt>
      <trkpt lat="40.991142" lon="-3.413595">
        <ele>1704.0</ele>
        <time>2018-02-25T15:33:41Z</time>
      </trkpt>
      <trkpt lat="40.990996" lon="-3.413742">
        <ele>1704.0</ele>
        <time>2018-02-25T15:33:58Z</time>
      </trkpt>
      <trkpt lat="40.990967" lon="-3.413935">
        <ele>1707.0</ele>
        <time>2018-02-25T15:34:16Z</time>
      </trkpt>
      <trkpt lat="40.990762" lon="-3.414266">
        <ele>1705.0</ele>
        <time>2018-02-25T15:34:54Z</time>
      </trkpt>
      <trkpt lat="40.990647" lon="-3.414458">
        <ele>1703.0</ele>
        <time>2018-02-25T15:35:13Z</time>
      </trkpt>
      <trkpt lat="40.990543" lon="-3.414695">
        <ele>1703.0</ele>
        <time>2018-02-25T15:35:35Z</time>
      </trkpt>
      <trkpt lat="40.990423" lon="-3.414827">
        <ele>1701.0</ele>
        <time>2018-02-25T15:35:54Z</time>
      </trkpt>
      <trkpt lat="40.990253" lon="-3.414932">
        <ele>1702.0</ele>
        <time>2018-02-25T15:36:10Z</time>
      </trkpt>
      <trkpt lat="40.990106" lon="-3.414998">
        <ele>1708.0</ele>
        <time>2018-02-25T15:36:29Z</time>
      </trkpt>
      <trkpt lat="40.989974" lon="-3.415092">
        <ele>1702.0</ele>
        <time>2018-02-25T15:36:40Z</time>
      </trkpt>
      <trkpt lat="40.989974" lon="-3.415092">
        <ele>1705.0</ele>
        <time>2018-02-25T15:36:48Z</time>
      </trkpt>
      <trkpt lat="40.989974" lon="-3.415092">
        <ele>1703.0</ele>
        <time>2018-02-25T15:36:48Z</time>
      </trkpt>
      <trkpt lat="40.989974" lon="-3.415092">
        <ele>1703.0</ele>
        <time>2018-02-25T15:36:56Z</time>
      </trkpt>
      <trkpt lat="40.989892" lon="-3.415133">
        <ele>1703.0</ele>
        <time>2018-02-25T15:36:56Z</time>
      </trkpt>
      <trkpt lat="40.989839" lon="-3.415156">
        <ele>1702.0</ele>
        <time>2018-02-25T15:37:04Z</time>
      </trkpt>
      <trkpt lat="40.989839" lon="-3.415156">
        <ele>1703.0</ele>
        <time>2018-02-25T15:37:11Z</time>
      </trkpt>
      <trkpt lat="40.989839" lon="-3.415156">
        <ele>1701.0</ele>
        <time>2018-02-25T15:37:42Z</time>
      </trkpt>
      <trkpt lat="40.989671" lon="-3.415168">
        <ele>1702.0</ele>
        <time>2018-02-25T15:37:42Z</time>
      </trkpt>
      <trkpt lat="40.989671" lon="-3.415168">
        <ele>1699.0</ele>
        <time>2018-02-25T15:37:49Z</time>
      </trkpt>
      <trkpt lat="40.989671" lon="-3.415168">
        <ele>1698.0</ele>
        <time>2018-02-25T15:37:49Z</time>
      </trkpt>
      <trkpt lat="40.989671" lon="-3.415168">
        <ele>1694.0</ele>
        <time>2018-02-25T15:38:27Z</time>
      </trkpt>
      <trkpt lat="40.98939" lon="-3.415132">
        <ele>1696.0</ele>
        <time>2018-02-25T15:38:27Z</time>
      </trkpt>
      <trkpt lat="40.989361" lon="-3.415207">
        <ele>1691.0</ele>
        <time>2018-02-25T15:38:34Z</time>
      </trkpt>
      <trkpt lat="40.989361" lon="-3.415207">
        <ele>1679.0</ele>
        <time>2018-02-25T15:38:42Z</time>
      </trkpt>
      <trkpt lat="40.989361" lon="-3.415207">
        <ele>1672.0</ele>
        <time>2018-02-25T15:39:38Z</time>
      </trkpt>
      <trkpt lat="40.989461" lon="-3.415644">
        <ele>1673.0</ele>
        <time>2018-02-25T15:39:38Z</time>
      </trkpt>
      <trkpt lat="40.989461" lon="-3.415644">
        <ele>1667.0</ele>
        <time>2018-02-25T15:42:00Z</time>
      </trkpt>
      <trkpt lat="40.989336" lon="-3.415831">
        <ele>1663.0</ele>
        <time>2018-02-25T15:42:13Z</time>
      </trkpt>
      <trkpt lat="40.989153" lon="-3.415887">
        <ele>1670.0</ele>
        <time>2018-02-25T15:42:30Z</time>
      </trkpt>
      <trkpt lat="40.989013" lon="-3.415955">
        <ele>1671.0</ele>
        <time>2018-02-25T15:42:46Z</time>
      </trkpt>
      <trkpt lat="40.988916" lon="-3.416029">
        <ele>1661.0</ele>
        <time>2018-02-25T15:43:02Z</time>
      </trkpt>
      <trkpt lat="40.988785" lon="-3.416262">
        <ele>1664.0</ele>
        <time>2018-02-25T15:43:20Z</time>
      </trkpt>
      <trkpt lat="40.988685" lon="-3.416376">
        <ele>1668.0</ele>
        <time>2018-02-25T15:43:31Z</time>
      </trkpt>
      <trkpt lat="40.988574" lon="-3.416458">
        <ele>1664.0</ele>
        <time>2018-02-25T15:43:44Z</time>
      </trkpt>
      <trkpt lat="40.988444" lon="-3.416578">
        <ele>1661.0</ele>
        <time>2018-02-25T15:44:00Z</time>
      </trkpt>
      <trkpt lat="40.988298" lon="-3.416723">
        <ele>1659.0</ele>
        <time>2018-02-25T15:44:17Z</time>
      </trkpt>
      <trkpt lat="40.98816" lon="-3.416892">
        <ele>1659.0</ele>
        <time>2018-02-25T15:44:37Z</time>
      </trkpt>
      <trkpt lat="40.988037" lon="-3.417021">
        <ele>1647.0</ele>
        <time>2018-02-25T15:44:54Z</time>
      </trkpt>
      <trkpt lat="40.987887" lon="-3.41716">
        <ele>1640.0</ele>
        <time>2018-02-25T15:45:11Z</time>
      </trkpt>
      <trkpt lat="40.987817" lon="-3.41725">
        <ele>1640.0</ele>
        <time>2018-02-25T15:45:20Z</time>
      </trkpt>
      <trkpt lat="40.987709" lon="-3.417453">
        <ele>1628.0</ele>
        <time>2018-02-25T15:45:39Z</time>
      </trkpt>
      <trkpt lat="40.987549" lon="-3.417639">
        <ele>1628.0</ele>
        <time>2018-02-25T15:45:57Z</time>
      </trkpt>
      <trkpt lat="40.9874" lon="-3.4177">
        <ele>1622.0</ele>
        <time>2018-02-25T15:46:09Z</time>
      </trkpt>
      <trkpt lat="40.987269" lon="-3.417639">
        <ele>1622.0</ele>
        <time>2018-02-25T15:46:22Z</time>
      </trkpt>
      <trkpt lat="40.98715" lon="-3.417635">
        <ele>1612.0</ele>
        <time>2018-02-25T15:46:39Z</time>
      </trkpt>
      <trkpt lat="40.986874" lon="-3.417549">
        <ele>1611.0</ele>
        <time>2018-02-25T15:47:12Z</time>
      </trkpt>
      <trkpt lat="40.986771" lon="-3.417564">
        <ele>1604.0</ele>
        <time>2018-02-25T15:47:25Z</time>
      </trkpt>
      <trkpt lat="40.986668" lon="-3.41752">
        <ele>1593.0</ele>
        <time>2018-02-25T15:47:36Z</time>
      </trkpt>
      <trkpt lat="40.986668" lon="-3.41752">
        <ele>1587.0</ele>
        <time>2018-02-25T15:47:43Z</time>
      </trkpt>
      <trkpt lat="40.986668" lon="-3.41752">
        <ele>1580.0</ele>
        <time>2018-02-25T15:48:16Z</time>
      </trkpt>
      <trkpt lat="40.986397" lon="-3.417345">
        <ele>1571.0</ele>
        <time>2018-02-25T15:48:20Z</time>
      </trkpt>
      <trkpt lat="40.986397" lon="-3.417345">
        <ele>1553.0</ele>
        <time>2018-02-25T15:48:27Z</time>
      </trkpt>
      <trkpt lat="40.986397" lon="-3.417345">
        <ele>1553.0</ele>
        <time>2018-02-25T15:48:35Z</time>
      </trkpt>
      <trkpt lat="40.98629" lon="-3.417304">
        <ele>1536.0</ele>
        <time>2018-02-25T15:48:35Z</time>
      </trkpt>
      <trkpt lat="40.986112" lon="-3.417227">
        <ele>1528.0</ele>
        <time>2018-02-25T15:48:52Z</time>
      </trkpt>
      <trkpt lat="40.985974" lon="-3.417109">
        <ele>1528.0</ele>
        <time>2018-02-25T15:49:08Z</time>
      </trkpt>
      <trkpt lat="40.985843" lon="-3.417042">
        <ele>1508.0</ele>
        <time>2018-02-25T15:49:23Z</time>
      </trkpt>
      <trkpt lat="40.985595" lon="-3.416955">
        <ele>1508.0</ele>
        <time>2018-02-25T15:49:40Z</time>
      </trkpt>
      <trkpt lat="40.98545" lon="-3.416867">
        <ele>1498.0</ele>
        <time>2018-02-25T15:49:53Z</time>
      </trkpt>
      <trkpt lat="40.985308" lon="-3.41682">
        <ele>1499.0</ele>
        <time>2018-02-25T15:50:11Z</time>
      </trkpt>
      <trkpt lat="40.985192" lon="-3.41681">
        <ele>1495.0</ele>
        <time>2018-02-25T15:50:22Z</time>
      </trkpt>
      <trkpt lat="40.985023" lon="-3.416851">
        <ele>1482.0</ele>
        <time>2018-02-25T15:50:38Z</time>
      </trkpt>
      <trkpt lat="40.984793" lon="-3.417112">
        <ele>1470.0</ele>
        <time>2018-02-25T15:51:54Z</time>
      </trkpt>
      <trkpt lat="40.984802" lon="-3.417302">
        <ele>1463.0</ele>
        <time>2018-02-25T15:52:10Z</time>
      </trkpt>
      <trkpt lat="40.984864" lon="-3.417456">
        <ele>1463.0</ele>
        <time>2018-02-25T15:52:24Z</time>
      </trkpt>
      <trkpt lat="40.984864" lon="-3.417456">
        <ele>1462.0</ele>
        <time>2018-02-25T15:52:31Z</time>
      </trkpt>
      <trkpt lat="40.984864" lon="-3.417456">
        <ele>1462.0</ele>
        <time>2018-02-25T15:52:31Z</time>
      </trkpt>
      <trkpt lat="40.984864" lon="-3.417456">
        <ele>1461.0</ele>
        <time>2018-02-25T15:54:10Z</time>
      </trkpt>
      <trkpt lat="40.984846" lon="-3.417878">
        <ele>1458.0</ele>
        <time>2018-02-25T15:54:10Z</time>
      </trkpt>
      <trkpt lat="40.98483" lon="-3.418279">
        <ele>1458.0</ele>
        <time>2018-02-25T15:55:25Z</time>
      </trkpt>
      <trkpt lat="40.98483" lon="-3.418279">
        <ele>1458.0</ele>
        <time>2018-02-25T15:57:53Z</time>
      </trkpt>
      <trkpt lat="40.985033" lon="-3.418508">
        <ele>1457.0</ele>
        <time>2018-02-25T15:58:58Z</time>
      </trkpt>
      <trkpt lat="40.985033" lon="-3.418508">
        <ele>1454.0</ele>
        <time>2018-02-25T15:59:06Z</time>
      </trkpt>
      <trkpt lat="40.985033" lon="-3.418508">
        <ele>1454.0</ele>
        <time>2018-02-25T15:59:06Z</time>
      </trkpt>
      <trkpt lat="40.985033" lon="-3.418508">
        <ele>1458.0</ele>
        <time>2018-02-25T16:02:28Z</time>
      </trkpt>
      <trkpt lat="40.985303" lon="-3.41867">
        <ele>1455.0</ele>
        <time>2018-02-25T16:02:28Z</time>
      </trkpt>
      <trkpt lat="40.985303" lon="-3.41867">
        <ele>1456.0</ele>
        <time>2018-02-25T16:04:30Z</time>
      </trkpt>
      <trkpt lat="40.985464" lon="-3.418981">
        <ele>1454.0</ele>
        <time>2018-02-25T16:05:28Z</time>
      </trkpt>
      <trkpt lat="40.98564" lon="-3.419275">
        <ele>1451.0</ele>
        <time>2018-02-25T16:06:55Z</time>
      </trkpt>
      <trkpt lat="40.985826" lon="-3.419518">
        <ele>1452.0</ele>
        <time>2018-02-25T16:07:48Z</time>
      </trkpt>
      <trkpt lat="40.985876" lon="-3.419897">
        <ele>1452.0</ele>
        <time>2018-02-25T16:08:51Z</time>
      </trkpt>
      <trkpt lat="40.985883" lon="-3.420262">
        <ele>1450.0</ele>
        <time>2018-02-25T16:10:02Z</time>
      </trkpt>
      <trkpt lat="40.985931" lon="-3.420599">
        <ele>1450.0</ele>
        <time>2018-02-25T16:11:05Z</time>
      </trkpt>
      <trkpt lat="40.985841" lon="-3.420953">
        <ele>1449.0</ele>
        <time>2018-02-25T16:12:19Z</time>
      </trkpt>
      <trkpt lat="40.985785" lon="-3.421272">
        <ele>1445.0</ele>
        <time>2018-02-25T16:13:28Z</time>
      </trkpt>
      <trkpt lat="40.985785" lon="-3.421272">
        <ele>1444.0</ele>
        <time>2018-02-25T16:15:31Z</time>
      </trkpt>
      <trkpt lat="40.985538" lon="-3.421428">
        <ele>1439.0</ele>
        <time>2018-02-25T16:15:52Z</time>
      </trkpt>
      <trkpt lat="40.985288" lon="-3.421623">
        <ele>1432.0</ele>
        <time>2018-02-25T16:17:54Z</time>
      </trkpt>
      <trkpt lat="40.985288" lon="-3.421623">
        <ele>1421.0</ele>
        <time>2018-02-25T16:20:25Z</time>
      </trkpt>
      <trkpt lat="40.984979" lon="-3.421649">
        <ele>1422.0</ele>
        <time>2018-02-25T16:22:08Z</time>
      </trkpt>
      <trkpt lat="40.984979" lon="-3.421649">
        <ele>1406.0</ele>
        <time>2018-02-25T16:22:15Z</time>
      </trkpt>
      <trkpt lat="40.984979" lon="-3.421649">
        <ele>1382.0</ele>
        <time>2018-02-25T16:22:15Z</time>
      </trkpt>
      <trkpt lat="40.984979" lon="-3.421649">
        <ele>1377.0</ele>
        <time>2018-02-25T16:22:53Z</time>
      </trkpt>
      <trkpt lat="40.984847" lon="-3.421775">
        <ele>1376.0</ele>
        <time>2018-02-25T16:22:53Z</time>
      </trkpt>
      <trkpt lat="40.984804" lon="-3.421808">
        <ele>1368.0</ele>
        <time>2018-02-25T16:22:57Z</time>
      </trkpt>
      <trkpt lat="40.984804" lon="-3.421808">
        <ele>1359.0</ele>
        <time>2018-02-25T16:23:02Z</time>
      </trkpt>
      <trkpt lat="40.984804" lon="-3.421808">
        <ele>1352.0</ele>
        <time>2018-02-25T16:23:53Z</time>
      </trkpt>
      <trkpt lat="40.984706" lon="-3.42198">
        <ele>1348.0</ele>
        <time>2018-02-25T16:23:53Z</time>
      </trkpt>
      <trkpt lat="40.984586" lon="-3.422338">
        <ele>1338.0</ele>
        <time>2018-02-25T16:24:49Z</time>
      </trkpt>
      <trkpt lat="40.984417" lon="-3.42265">
        <ele>1338.0</ele>
        <time>2018-02-25T16:26:54Z</time>
      </trkpt>
      <trkpt lat="40.984367" lon="-3.422993">
        <ele>1336.0</ele>
        <time>2018-02-25T16:27:41Z</time>
      </trkpt>
      <trkpt lat="40.984369" lon="-3.423137">
        <ele>1329.0</ele>
        <time>2018-02-25T16:27:50Z</time>
      </trkpt>
      <trkpt lat="40.984369" lon="-3.423137">
        <ele>1329.0</ele>
        <time>2018-02-25T16:27:57Z</time>
      </trkpt>
      <trkpt lat="40.984369" lon="-3.423137">
        <ele>1313.0</ele>
        <time>2018-02-25T16:28:02Z</time>
      </trkpt>
      <trkpt lat="40.984387" lon="-3.423197">
        <ele>1313.0</ele>
        <time>2018-02-25T16:28:02Z</time>
      </trkpt>
      <trkpt lat="40.984408" lon="-3.423342">
        <ele>1301.0</ele>
        <time>2018-02-25T16:28:10Z</time>
      </trkpt>
      <trkpt lat="40.984445" lon="-3.423487">
        <ele>1301.0</ele>
        <time>2018-02-25T16:28:21Z</time>
      </trkpt>
      <trkpt lat="40.984461" lon="-3.423703">
        <ele>1301.0</ele>
        <time>2018-02-25T16:28:38Z</time>
      </trkpt>
      <trkpt lat="40.984542" lon="-3.423907">
        <ele>1301.0</ele>
        <time>2018-02-25T16:28:54Z</time>
      </trkpt>
      <trkpt lat="40.984601" lon="-3.424168">
        <ele>1275.0</ele>
        <time>2018-02-25T16:29:10Z</time>
      </trkpt>
      <trkpt lat="40.984635" lon="-3.42435">
        <ele>1275.0</ele>
        <time>2018-02-25T16:29:20Z</time>
      </trkpt>
      <trkpt lat="40.984696" lon="-3.424561">
        <ele>1262.0</ele>
        <time>2018-02-25T16:29:36Z</time>
      </trkpt>
      <trkpt lat="40.984784" lon="-3.424772">
        <ele>1248.0</ele>
        <time>2018-02-25T16:29:53Z</time>
      </trkpt>
      <trkpt lat="40.98483" lon="-3.425019">
        <ele>1232.0</ele>
        <time>2018-02-25T16:30:10Z</time>
      </trkpt>
      <trkpt lat="40.984847" lon="-3.425271">
        <ele>1201.0</ele>
        <time>2018-02-25T16:30:28Z</time>
      </trkpt>
      <trkpt lat="40.984868" lon="-3.425468">
        <ele>1201.0</ele>
        <time>2018-02-25T16:30:42Z</time>
      </trkpt>
      <trkpt lat="40.984901" lon="-3.425732">
        <ele>1199.0</ele>
        <time>2018-02-25T16:31:02Z</time>
      </trkpt>
      <trkpt lat="40.984931" lon="-3.425993">
        <ele>1199.0</ele>
        <time>2018-02-25T16:31:21Z</time>
      </trkpt>
      <trkpt lat="40.984985" lon="-3.426239">
        <ele>1169.0</ele>
        <time>2018-02-25T16:31:41Z</time>
      </trkpt>
      <trkpt lat="40.985033" lon="-3.426445">
        <ele>1169.0</ele>
        <time>2018-02-25T16:31:57Z</time>
      </trkpt>
      <trkpt lat="40.985099" lon="-3.426614">
        <ele>1155.0</ele>
        <time>2018-02-25T16:32:10Z</time>
      </trkpt>
      <trkpt lat="40.985198" lon="-3.426779">
        <ele>1155.0</ele>
        <time>2018-02-25T16:32:25Z</time>
      </trkpt>
      <trkpt lat="40.98524" lon="-3.426809">
        <ele>1141.0</ele>
        <time>2018-02-25T16:32:30Z</time>
      </trkpt>
      <trkpt lat="40.98524" lon="-3.426809">
        <ele>1141.0</ele>
        <time>2018-02-25T16:32:37Z</time>
      </trkpt>
      <trkpt lat="40.98524" lon="-3.426809">
        <ele>1132.0</ele>
        <time>2018-02-25T16:34:16Z</time>
      </trkpt>
      <trkpt lat="40.985352" lon="-3.427188">
        <ele>1129.0</ele>
        <time>2018-02-25T16:34:16Z</time>
      </trkpt>
      <trkpt lat="40.985433" lon="-3.427281">
        <ele>1129.0</ele>
        <time>2018-02-25T16:34:30Z</time>
      </trkpt>
      <trkpt lat="40.985431" lon="-3.427636">
        <ele>1124.0</ele>
        <time>2018-02-25T16:35:05Z</time>
      </trkpt>
      <trkpt lat="40.985501" lon="-3.427963">
        <ele>1125.0</ele>
        <time>2018-02-25T16:36:01Z</time>
      </trkpt>
      <trkpt lat="40.985625" lon="-3.4283">
        <ele>1122.0</ele>
        <time>2018-02-25T16:37:02Z</time>
      </trkpt>
      <trkpt lat="40.985638" lon="-3.428369">
        <ele>1131.0</ele>
        <time>2018-02-25T16:37:08Z</time>
      </trkpt>
      <trkpt lat="40.985638" lon="-3.428369">
        <ele>1137.0</ele>
        <time>2018-02-25T16:37:16Z</time>
      </trkpt>
      <trkpt lat="40.985638" lon="-3.428369">
        <ele>1137.0</ele>
        <time>2018-02-25T16:38:42Z</time>
      </trkpt>
      <trkpt lat="40.985686" lon="-3.42872">
        <ele>1148.0</ele>
        <time>2018-02-25T16:38:42Z</time>
      </trkpt>
      <trkpt lat="40.985748" lon="-3.429092">
        <ele>1154.0</ele>
        <time>2018-02-25T16:40:59Z</time>
      </trkpt>
      <trkpt lat="40.985853" lon="-3.429205">
        <ele>1155.0</ele>
        <time>2018-02-25T16:41:13Z</time>
      </trkpt>
      <trkpt lat="40.985909" lon="-3.429257">
        <ele>1159.0</ele>
        <time>2018-02-25T16:41:21Z</time>
      </trkpt>
      <trkpt lat="40.985909" lon="-3.429257">
        <ele>1162.0</ele>
        <time>2018-02-25T16:41:28Z</time>
      </trkpt>
      <trkpt lat="40.985909" lon="-3.429257">
        <ele>1161.0</ele>
        <time>2018-02-25T16:46:12Z</time>
      </trkpt>
      <trkpt lat="40.985999" lon="-3.429546">
        <ele>1162.0</ele>
        <time>2018-02-25T16:46:12Z</time>
      </trkpt>
      <trkpt lat="40.98603" lon="-3.429721">
        <ele>1167.0</ele>
        <time>2018-02-25T16:46:22Z</time>
      </trkpt>
      <trkpt lat="40.98603" lon="-3.429721">
        <ele>1172.0</ele>
        <time>2018-02-25T16:46:30Z</time>
      </trkpt>
      <trkpt lat="40.98603" lon="-3.429721">
        <ele>1176.0</ele>
        <time>2018-02-25T16:48:05Z</time>
      </trkpt>
      <trkpt lat="40.986206" lon="-3.429849">
        <ele>1178.0</ele>
        <time>2018-02-25T16:48:05Z</time>
      </trkpt>
      <trkpt lat="40.986252" lon="-3.429865">
        <ele>1182.0</ele>
        <time>2018-02-25T16:48:11Z</time>
      </trkpt>
      <trkpt lat="40.986252" lon="-3.429865">
        <ele>1183.0</ele>
        <time>2018-02-25T16:48:18Z</time>
      </trkpt>
      <trkpt lat="40.986252" lon="-3.429865">
        <ele>1184.0</ele>
        <time>2018-02-25T16:49:52Z</time>
      </trkpt>
      <trkpt lat="40.986356" lon="-3.430066">
        <ele>1185.0</ele>
        <time>2018-02-25T16:49:52Z</time>
      </trkpt>
      <trkpt lat="40.986356" lon="-3.430066">
        <ele>1185.0</ele>
        <time>2018-02-25T16:50:00Z</time>
      </trkpt>
      <trkpt lat="40.986356" lon="-3.430066">
        <ele>1187.0</ele>
        <time>2018-02-25T16:50:00Z</time>
      </trkpt>
      <trkpt lat="40.986356" lon="-3.430066">
        <ele>1190.0</ele>
        <time>2018-02-25T16:51:30Z</time>
      </trkpt>
      <trkpt lat="40.986485" lon="-3.430243">
        <ele>1188.0</ele>
        <time>2018-02-25T16:51:30Z</time>
      </trkpt>
      <trkpt lat="40.986733" lon="-3.430329">
        <ele>1191.0</ele>
        <time>2018-02-25T16:52:12Z</time>
      </trkpt>
      <trkpt lat="40.986733" lon="-3.430329">
        <ele>1191.0</ele>
        <time>2018-02-25T16:54:21Z</time>
      </trkpt>
      <trkpt lat="40.987026" lon="-3.430411">
        <ele>1191.0</ele>
        <time>2018-02-25T16:54:32Z</time>
      </trkpt>
      <trkpt lat="40.987026" lon="-3.430411">
        <ele>1193.0</ele>
        <time>2018-02-25T16:54:39Z</time>
      </trkpt>
      <trkpt lat="40.987026" lon="-3.430411">
        <ele>1191.0</ele>
        <time>2018-02-25T16:54:39Z</time>
      </trkpt>
      <trkpt lat="40.987026" lon="-3.430411">
        <ele>1195.0</ele>
        <time>2018-02-25T16:57:23Z</time>
      </trkpt>
      <trkpt lat="40.98706" lon="-3.430698">
        <ele>1199.0</ele>
        <time>2018-02-25T16:57:23Z</time>
      </trkpt>
      <trkpt lat="40.98706" lon="-3.430698">
        <ele>1200.0</ele>
        <time>2018-02-25T16:57:30Z</time>
      </trkpt>
      <trkpt lat="40.98706" lon="-3.430698">
        <ele>1203.0</ele>
        <time>2018-02-25T16:57:30Z</time>
      </trkpt>
      <trkpt lat="40.98706" lon="-3.430698">
        <ele>1202.0</ele>
        <time>2018-02-25T16:58:54Z</time>
      </trkpt>
      <trkpt lat="40.987116" lon="-3.431045">
        <ele>1204.0</ele>
        <time>2018-02-25T16:58:54Z</time>
      </trkpt>
      <trkpt lat="40.987116" lon="-3.431045">
        <ele>1208.0</ele>
        <time>2018-02-25T16:59:01Z</time>
      </trkpt>
      <trkpt lat="40.987116" lon="-3.431045">
        <ele>1208.0</ele>
        <time>2018-02-25T16:59:01Z</time>
      </trkpt>
      <trkpt lat="40.987116" lon="-3.431045">
        <ele>1205.0</ele>
        <time>2018-02-25T17:01:59Z</time>
      </trkpt>
      <trkpt lat="40.987185" lon="-3.43137">
        <ele>1204.0</ele>
        <time>2018-02-25T17:01:59Z</time>
      </trkpt>
      <trkpt lat="40.987185" lon="-3.43137">
        <ele>1200.0</ele>
        <time>2018-02-25T17:02:04Z</time>
      </trkpt>
      <trkpt lat="40.987185" lon="-3.43137">
        <ele>1200.0</ele>
        <time>2018-02-25T17:02:04Z</time>
      </trkpt>
      <trkpt lat="40.987185" lon="-3.43137">
        <ele>1199.0</ele>
        <time>2018-02-25T17:04:26Z</time>
      </trkpt>
      <trkpt lat="40.987185" lon="-3.431739">
        <ele>1198.0</ele>
        <time>2018-02-25T17:04:26Z</time>
      </trkpt>
      <trkpt lat="40.987117" lon="-3.432109">
        <ele>1199.0</ele>
        <time>2018-02-25T17:06:22Z</time>
      </trkpt>
      <trkpt lat="40.987226" lon="-3.432481">
        <ele>1196.0</ele>
        <time>2018-02-25T17:08:22Z</time>
      </trkpt>
      <trkpt lat="40.98733" lon="-3.432864">
        <ele>1195.0</ele>
        <time>2018-02-25T17:10:37Z</time>
      </trkpt>
      <trkpt lat="40.98733" lon="-3.432864">
        <ele>1192.0</ele>
        <time>2018-02-25T17:12:42Z</time>
      </trkpt>
      <trkpt lat="40.987492" lon="-3.433383">
        <ele>1193.0</ele>
        <time>2018-02-25T17:16:54Z</time>
      </trkpt>
      <trkpt lat="40.987492" lon="-3.433383">
        <ele>1193.0</ele>
        <time>2018-02-25T17:19:11Z</time>
      </trkpt>
      <trkpt lat="40.987606" lon="-3.43382">
        <ele>1194.0</ele>
        <time>2018-02-25T17:20:24Z</time>
      </trkpt>
      <trkpt lat="40.987606" lon="-3.43382">
        <ele>1190.0</ele>
        <time>2018-02-25T17:22:52Z</time>
      </trkpt>
      <trkpt lat="40.987717" lon="-3.434149">
        <ele>1194.0</ele>
        <time>2018-02-25T17:23:13Z</time>
      </trkpt>
      <trkpt lat="40.987717" lon="-3.434149">
        <ele>1192.0</ele>
        <time>2018-02-25T17:23:20Z</time>
      </trkpt>
      <trkpt lat="40.987717" lon="-3.434149">
        <ele>1193.0</ele>
        <time>2018-02-25T17:23:20Z</time>
      </trkpt>
      <trkpt lat="40.987717" lon="-3.434149">
        <ele>1190.0</ele>
        <time>2018-02-25T17:25:10Z</time>
      </trkpt>
      <trkpt lat="40.987852" lon="-3.434473">
        <ele>1192.0</ele>
        <time>2018-02-25T17:25:10Z</time>
      </trkpt>
      <trkpt lat="40.987852" lon="-3.434473">
        <ele>1192.0</ele>
        <time>2018-02-25T17:27:23Z</time>
      </trkpt>
      <trkpt lat="40.988121" lon="-3.434703">
        <ele>1194.0</ele>
        <time>2018-02-25T17:27:31Z</time>
      </trkpt>
      <trkpt lat="40.988135" lon="-3.434947">
        <ele>1194.0</ele>
        <time>2018-02-25T17:27:53Z</time>
      </trkpt>
      <trkpt lat="40.988135" lon="-3.434947">
        <ele>1195.0</ele>
        <time>2018-02-25T17:30:37Z</time>
      </trkpt>
      <trkpt lat="40.9882" lon="-3.435216">
        <ele>1195.0</ele>
        <time>2018-02-25T17:30:45Z</time>
      </trkpt>
      <trkpt lat="40.988225" lon="-3.435256">
        <ele>1191.0</ele>
        <time>2018-02-25T17:30:47Z</time>
      </trkpt>
      <trkpt lat="40.988225" lon="-3.435256">
        <ele>1193.0</ele>
        <time>2018-02-25T17:30:52Z</time>
      </trkpt>
      <trkpt lat="40.988225" lon="-3.435256">
        <ele>1191.0</ele>
        <time>2018-02-25T17:31:36Z</time>
      </trkpt>
      <trkpt lat="40.988262" lon="-3.43543">
        <ele>1191.0</ele>
        <time>2018-02-25T17:31:36Z</time>
      </trkpt>
      <trkpt lat="40.988307" lon="-3.435624">
        <ele>1183.0</ele>
        <time>2018-02-25T17:31:52Z</time>
      </trkpt>
      <trkpt lat="40.988346" lon="-3.435975">
        <ele>1180.0</ele>
        <time>2018-02-25T17:33:00Z</time>
      </trkpt>
      <trkpt lat="40.988346" lon="-3.435975">
        <ele>1182.0</ele>
        <time>2018-02-25T17:33:07Z</time>
      </trkpt>
      <trkpt lat="40.988346" lon="-3.435975">
        <ele>1183.0</ele>
        <time>2018-02-25T17:33:07Z</time>
      </trkpt>
      <trkpt lat="40.988346" lon="-3.435975">
        <ele>1181.0</ele>
        <time>2018-02-25T17:33:56Z</time>
      </trkpt>
      <trkpt lat="40.988343" lon="-3.436398">
        <ele>1185.0</ele>
        <time>2018-02-25T17:33:56Z</time>
      </trkpt>
      <trkpt lat="40.988437" lon="-3.436759">
        <ele>1193.0</ele>
        <time>2018-02-25T17:34:38Z</time>
      </trkpt>
      <trkpt lat="40.988564" lon="-3.436927">
        <ele>1193.0</ele>
        <time>2018-02-25T17:35:00Z</time>
      </trkpt>
      <trkpt lat="40.988787" lon="-3.437108">
        <ele>1194.0</ele>
        <time>2018-02-25T17:35:32Z</time>
      </trkpt>
      <trkpt lat="40.989021" lon="-3.437276">
        <ele>1194.0</ele>
        <time>2018-02-25T17:36:11Z</time>
      </trkpt>
      <trkpt lat="40.989261" lon="-3.437534">
        <ele>1188.0</ele>
        <time>2018-02-25T17:36:52Z</time>
      </trkpt>
      <trkpt lat="40.989468" lon="-3.437811">
        <ele>1184.0</ele>
        <time>2018-02-25T17:37:33Z</time>
      </trkpt>
      <trkpt lat="40.989663" lon="-3.438085">
        <ele>1185.0</ele>
        <time>2018-02-25T17:38:16Z</time>
      </trkpt>
      <trkpt lat="40.989918" lon="-3.438251">
        <ele>1187.0</ele>
        <time>2018-02-25T17:39:03Z</time>
      </trkpt>
      <trkpt lat="40.990006" lon="-3.43834">
        <ele>1188.0</ele>
        <time>2018-02-25T17:39:21Z</time>
      </trkpt>
      <trkpt lat="40.990088" lon="-3.438486">
        <ele>1188.0</ele>
        <time>2018-02-25T17:39:39Z</time>
      </trkpt>
      <trkpt lat="40.99013" lon="-3.438902">
        <ele>1186.0</ele>
        <time>2018-02-25T17:40:21Z</time>
      </trkpt>
      <trkpt lat="40.990228" lon="-3.439243">
        <ele>1187.0</ele>
        <time>2018-02-25T17:40:55Z</time>
      </trkpt>
      <trkpt lat="40.990398" lon="-3.439298">
        <ele>1187.0</ele>
        <time>2018-02-25T17:41:17Z</time>
      </trkpt>
      <trkpt lat="40.990697" lon="-3.439352">
        <ele>1186.0</ele>
        <time>2018-02-25T17:41:52Z</time>
      </trkpt>
      <trkpt lat="40.990792" lon="-3.439355">
        <ele>1187.0</ele>
        <time>2018-02-25T17:42:03Z</time>
      </trkpt>
      <trkpt lat="40.990792" lon="-3.439355">
        <ele>1188.0</ele>
        <time>2018-02-25T17:42:13Z</time>
      </trkpt>
      <trkpt lat="40.990792" lon="-3.439355">
        <ele>1184.0</ele>
        <time>2018-02-25T17:42:18Z</time>
      </trkpt>
      <trkpt lat="40.990868" lon="-3.439381">
        <ele>1184.0</ele>
        <time>2018-02-25T17:42:18Z</time>
      </trkpt>
      <trkpt lat="40.991002" lon="-3.439319">
        <ele>1181.0</ele>
        <time>2018-02-25T17:42:35Z</time>
      </trkpt>
      <trkpt lat="40.991139" lon="-3.439218">
        <ele>1181.0</ele>
        <time>2018-02-25T17:42:52Z</time>
      </trkpt>
      <trkpt lat="40.991278" lon="-3.439099">
        <ele>1181.0</ele>
        <time>2018-02-25T17:43:11Z</time>
      </trkpt>
      <trkpt lat="40.991439" lon="-3.43902">
        <ele>1177.0</ele>
        <time>2018-02-25T17:43:30Z</time>
      </trkpt>
      <trkpt lat="40.991439" lon="-3.43902">
        <ele>1181.0</ele>
        <time>2018-02-25T17:43:37Z</time>
      </trkpt>
      <trkpt lat="40.991439" lon="-3.43902">
        <ele>1183.0</ele>
        <time>2018-02-25T17:43:37Z</time>
      </trkpt>
      <trkpt lat="40.991439" lon="-3.43902">
        <ele>1182.0</ele>
        <time>2018-02-25T17:44:02Z</time>
      </trkpt>
      <trkpt lat="40.991628" lon="-3.438974">
        <ele>1181.0</ele>
        <time>2018-02-25T17:44:02Z</time>
      </trkpt>
      <trkpt lat="40.991775" lon="-3.438946">
        <ele>1181.0</ele>
        <time>2018-02-25T17:44:16Z</time>
      </trkpt>
      <trkpt lat="40.991936" lon="-3.438919">
        <ele>1174.0</ele>
        <time>2018-02-25T17:44:35Z</time>
      </trkpt>
      <trkpt lat="40.99222" lon="-3.438988">
        <ele>1180.0</ele>
        <time>2018-02-25T17:45:08Z</time>
      </trkpt>
      <trkpt lat="40.992413" lon="-3.439015">
        <ele>1178.0</ele>
        <time>2018-02-25T17:45:27Z</time>
      </trkpt>
      <trkpt lat="40.992532" lon="-3.439">
        <ele>1177.0</ele>
        <time>2018-02-25T17:45:40Z</time>
      </trkpt>
      <trkpt lat="40.992699" lon="-3.438985">
        <ele>1174.0</ele>
        <time>2018-02-25T17:46:01Z</time>
      </trkpt>
      <trkpt lat="40.992832" lon="-3.438936">
        <ele>1173.0</ele>
        <time>2018-02-25T17:46:16Z</time>
      </trkpt>
      <trkpt lat="40.993078" lon="-3.43887">
        <ele>1171.0</ele>
        <time>2018-02-25T17:46:37Z</time>
      </trkpt>
      <trkpt lat="40.993078" lon="-3.43887">
        <ele>1169.0</ele>
        <time>2018-02-25T17:46:45Z</time>
      </trkpt>
      <trkpt lat="40.993078" lon="-3.43887">
        <ele>1166.0</ele>
        <time>2018-02-25T17:46:46Z</time>
      </trkpt>
      <trkpt lat="40.993078" lon="-3.43887">
        <ele>1160.0</ele>
        <time>2018-02-25T17:46:55Z</time>
      </trkpt>
      <trkpt lat="40.993204" lon="-3.438867">
        <ele>1160.0</ele>
        <time>2018-02-25T17:46:55Z</time>
      </trkpt>
      <trkpt lat="40.993361" lon="-3.43887">
        <ele>1148.0</ele>
        <time>2018-02-25T17:47:09Z</time>
      </trkpt>
      <trkpt lat="40.993497" lon="-3.438877">
        <ele>1146.0</ele>
        <time>2018-02-25T17:47:23Z</time>
      </trkpt>
      <trkpt lat="40.993696" lon="-3.43885">
        <ele>1152.0</ele>
        <time>2018-02-25T17:47:45Z</time>
      </trkpt>
      <trkpt lat="40.993837" lon="-3.438857">
        <ele>1152.0</ele>
        <time>2018-02-25T17:47:58Z</time>
      </trkpt>
      <trkpt lat="40.994028" lon="-3.438864">
        <ele>1153.0</ele>
        <time>2018-02-25T17:48:18Z</time>
      </trkpt>
      <trkpt lat="40.994122" lon="-3.438865">
        <ele>1155.0</ele>
        <time>2018-02-25T17:48:31Z</time>
      </trkpt>
      <trkpt lat="40.994244" lon="-3.438898">
        <time>2018-02-25T17:48:42Z</time>
      </trkpt>
      <trkpt lat="40.994307" lon="-3.438921">
        <time>2018-02-25T17:48:48Z</time>
      </trkpt>
      <trkpt lat="40.994307" lon="-3.438921">
        <time>2018-02-25T17:48:56Z</time>
      </trkpt>
      <trkpt lat="40.994307" lon="-3.438921">
        <time>2018-02-25T17:49:02Z</time>
      </trkpt>
      <trkpt lat="40.99435" lon="-3.43892">
        <time>2018-02-25T17:49:02Z</time>
      </trkpt>
      <trkpt lat="40.994532" lon="-3.438996">
        <time>2018-02-25T17:49:19Z</time>
      </trkpt>
      <trkpt lat="40.994654" lon="-3.439029">
        <time>2018-02-25T17:49:31Z</time>
      </trkpt>
      <trkpt lat="40.99484" lon="-3.439034">
        <time>2018-02-25T17:49:47Z</time>
      </trkpt>
      <trkpt lat="40.995017" lon="-3.438943">
        <time>2018-02-25T17:50:05Z</time>
      </trkpt>
      <trkpt lat="40.995161" lon="-3.438881">
        <time>2018-02-25T17:50:19Z</time>
      </trkpt>
      <trkpt lat="40.995325" lon="-3.438838">
        <time>2018-02-25T17:50:35Z</time>
      </trkpt>
      <trkpt lat="40.995452" lon="-3.438829">
        <time>2018-02-25T17:50:49Z</time>
      </trkpt>
      <trkpt lat="40.995646" lon="-3.438857">
        <time>2018-02-25T17:51:06Z</time>
      </trkpt>
      <trkpt lat="40.995807" lon="-3.438855">
        <time>2018-02-25T17:51:21Z</time>
      </trkpt>
      <trkpt lat="40.995953" lon="-3.438846">
        <time>2018-02-25T17:51:38Z</time>
      </trkpt>
      <trkpt lat="40.996052" lon="-3.438863">
        <time>2018-02-25T17:51:47Z</time>
      </trkpt>
      <trkpt lat="40.996139" lon="-3.438866">
        <time>2018-02-25T17:51:55Z</time>
      </trkpt>
      <trkpt lat="40.996347" lon="-3.438884">
        <time>2018-02-25T17:52:15Z</time>
      </trkpt>
      <trkpt lat="40.996487" lon="-3.438909">
        <time>2018-02-25T17:52:29Z</time>
      </trkpt>
      <trkpt lat="40.996667" lon="-3.438891">
        <time>2018-02-25T17:52:53Z</time>
      </trkpt>
      <trkpt lat="40.99681" lon="-3.438819">
        <time>2018-02-25T17:53:05Z</time>
      </trkpt>
      <trkpt lat="40.996944" lon="-3.438742">
        <time>2018-02-25T17:53:23Z</time>
      </trkpt>
      <trkpt lat="40.997188" lon="-3.438601">
        <time>2018-02-25T17:53:54Z</time>
      </trkpt>
      <trkpt lat="40.997311" lon="-3.438576">
        <time>2018-02-25T17:54:07Z</time>
      </trkpt>
      <trkpt lat="40.997414" lon="-3.438572">
        <time>2018-02-25T17:54:22Z</time>
      </trkpt>
      <trkpt lat="40.997572" lon="-3.438626">
        <time>2018-02-25T17:54:40Z</time>
      </trkpt>
      <trkpt lat="40.997714" lon="-3.438667">
        <time>2018-02-25T17:54:53Z</time>
      </trkpt>
      <trkpt lat="40.997813" lon="-3.438676">
        <time>2018-02-25T17:55:06Z</time>
      </trkpt>
      <trkpt lat="40.998116" lon="-3.438797">
        <time>2018-02-25T17:55:41Z</time>
      </trkpt>
      <trkpt lat="40.998243" lon="-3.438908">
        <time>2018-02-25T17:55:56Z</time>
      </trkpt>
      <trkpt lat="40.998369" lon="-3.439">
        <time>2018-02-25T17:56:11Z</time>
      </trkpt>
      <trkpt lat="40.9985" lon="-3.439091">
        <time>2018-02-25T17:56:26Z</time>
      </trkpt>
      <trkpt lat="40.998651" lon="-3.439247">
        <time>2018-02-25T17:56:43Z</time>
      </trkpt>
      <trkpt lat="40.998767" lon="-3.439307">
        <time>2018-02-25T17:56:56Z</time>
      </trkpt>
      <trkpt lat="40.998916" lon="-3.439415">
        <time>2018-02-25T17:57:13Z</time>
      </trkpt>
      <trkpt lat="40.999012" lon="-3.439485">
        <time>2018-02-25T17:57:25Z</time>
      </trkpt>
      <trkpt lat="40.999102" lon="-3.439541">
        <time>2018-02-25T17:57:34Z</time>
      </trkpt>
      <trkpt lat="40.999187" lon="-3.439572">
        <time>2018-02-25T17:57:43Z</time>
      </trkpt>
      <trkpt lat="40.999351" lon="-3.439661">
        <time>2018-02-25T17:57:59Z</time>
      </trkpt>
      <trkpt lat="40.999551" lon="-3.439695">
        <time>2018-02-25T17:58:16Z</time>
      </trkpt>
      <trkpt lat="40.999656" lon="-3.4397">
        <time>2018-02-25T17:58:24Z</time>
      </trkpt>
      <trkpt lat="40.999822" lon="-3.439669">
        <time>2018-02-25T17:58:40Z</time>
      </trkpt>
      <trkpt lat="40.999966" lon="-3.439608">
        <time>2018-02-25T17:58:53Z</time>
      </trkpt>
      <trkpt lat="41.000049" lon="-3.439591">
        <time>2018-02-25T17:59:01Z</time>
      </trkpt>
      <trkpt lat="41.000049" lon="-3.439591">
        <time>2018-02-25T17:59:06Z</time>
      </trkpt>
      <trkpt lat="41.000049" lon="-3.439591">
        <time>2018-02-25T17:59:13Z</time>
      </trkpt>
      <trkpt lat="41.000144" lon="-3.43963">
        <time>2018-02-25T17:59:13Z</time>
      </trkpt>
      <trkpt lat="41.000282" lon="-3.439747">
        <time>2018-02-25T17:59:31Z</time>
      </trkpt>
      <trkpt lat="41.000472" lon="-3.439732">
        <time>2018-02-25T17:59:48Z</time>
      </trkpt>
      <trkpt lat="41.000627" lon="-3.439699">
        <time>2018-02-25T18:00:04Z</time>
      </trkpt>
      <trkpt lat="41.000842" lon="-3.439649">
        <time>2018-02-25T18:00:22Z</time>
      </trkpt>
      <trkpt lat="41.000953" lon="-3.439647">
        <time>2018-02-25T18:00:32Z</time>
      </trkpt>
      <trkpt lat="41.001116" lon="-3.439642">
        <time>2018-02-25T18:00:48Z</time>
      </trkpt>
      <trkpt lat="41.001314" lon="-3.439639">
        <time>2018-02-25T18:01:06Z</time>
      </trkpt>
      <trkpt lat="41.001393" lon="-3.439648">
        <time>2018-02-25T18:01:14Z</time>
      </trkpt>
      <trkpt lat="41.001393" lon="-3.439648">
        <time>2018-02-25T18:01:22Z</time>
      </trkpt>
      <trkpt lat="41.001393" lon="-3.439648">
        <time>2018-02-25T18:01:25Z</time>
      </trkpt>
      <trkpt lat="41.001469" lon="-3.439689">
        <time>2018-02-25T18:01:25Z</time>
      </trkpt>
      <trkpt lat="41.001641" lon="-3.439723">
        <time>2018-02-25T18:01:42Z</time>
      </trkpt>
      <trkpt lat="41.001641" lon="-3.439723">
        <time>2018-02-25T18:01:49Z</time>
      </trkpt>
      <trkpt lat="41.001641" lon="-3.439723">
        <time>2018-02-25T18:01:50Z</time>
      </trkpt>
      <trkpt lat="41.001641" lon="-3.439723">
        <time>2018-02-25T18:02:02Z</time>
      </trkpt>
      <trkpt lat="41.001756" lon="-3.439734">
        <time>2018-02-25T18:02:02Z</time>
      </trkpt>
      <trkpt lat="41.001932" lon="-3.439703">
        <time>2018-02-25T18:02:16Z</time>
      </trkpt>
      <trkpt lat="41.002085" lon="-3.439674">
        <time>2018-02-25T18:02:31Z</time>
      </trkpt>
      <trkpt lat="41.002256" lon="-3.439724">
        <time>2018-02-25T18:02:46Z</time>
      </trkpt>
      <trkpt lat="41.002434" lon="-3.439807">
        <time>2018-02-25T18:03:04Z</time>
      </trkpt>
      <trkpt lat="41.002609" lon="-3.439802">
        <time>2018-02-25T18:03:21Z</time>
      </trkpt>
      <trkpt lat="41.002831" lon="-3.439838">
        <time>2018-02-25T18:03:41Z</time>
      </trkpt>
      <trkpt lat="41.002976" lon="-3.439824">
        <time>2018-02-25T18:03:58Z</time>
      </trkpt>
      <trkpt lat="41.003122" lon="-3.439859">
        <time>2018-02-25T18:04:17Z</time>
      </trkpt>
      <trkpt lat="41.003408" lon="-3.439833">
        <time>2018-02-25T18:05:23Z</time>
      </trkpt>
      <trkpt lat="41.003408" lon="-3.439833">
        <time>2018-02-25T18:05:30Z</time>
      </trkpt>
      <trkpt lat="41.003408" lon="-3.439833">
        <time>2018-02-25T18:05:30Z</time>
      </trkpt>
      <trkpt lat="41.003408" lon="-3.439833">
        <time>2018-02-25T18:06:49Z</time>
      </trkpt>
      <trkpt lat="41.003408" lon="-3.440139">
        <time>2018-02-25T18:06:49Z</time>
      </trkpt>
      <trkpt lat="41.00323" lon="-3.440403">
        <time>2018-02-25T18:07:21Z</time>
      </trkpt>
      <trkpt lat="41.003166" lon="-3.440563">
        <time>2018-02-25T18:07:34Z</time>
      </trkpt>
      <trkpt lat="41.003056" lon="-3.440676">
        <time>2018-02-25T18:07:51Z</time>
      </trkpt>
      <trkpt lat="41.002922" lon="-3.440654">
        <time>2018-02-25T18:08:06Z</time>
      </trkpt>
      <trkpt lat="41.002874" lon="-3.440703">
        <time>2018-02-25T18:08:14Z</time>
      </trkpt>
      <trkpt lat="41.002874" lon="-3.440703">
        <time>2018-02-25T18:08:22Z</time>
      </trkpt>
      <trkpt lat="41.002874" lon="-3.440703">
        <time>2018-02-25T18:12:38Z</time>
      </trkpt>
      <trkpt lat="41.002874" lon="-3.440703">
        <time>2018-02-25T18:12:40Z</time>
      </trkpt>
      <trkpt lat="41.002874" lon="-3.440703">
        <time>2018-02-25T18:12:45Z</time>
      </trkpt>
      <trkpt lat="41.00305" lon="-3.440767">
        <ele>1168.0</ele>
        <time>2018-02-25T10:24:42Z</time>
      </trkpt>
      <trkpt lat="41.00305" lon="-3.440767">
        <ele>1154.0</ele>
        <time>2018-02-25T10:24:44Z</time>
      </trkpt>
      <trkpt lat="41.003343" lon="-3.440696">
        <ele>1156.0</ele>
        <time>2018-02-25T10:27:16Z</time>
      </trkpt>
      <trkpt lat="41.003464" lon="-3.440368">
        <ele>1158.0</ele>
        <time>2018-02-25T10:28:21Z</time>
      </trkpt>
      <trkpt lat="41.003657" lon="-3.440353">
        <ele>1170.0</ele>
        <time>2018-02-25T10:28:41Z</time>
      </trkpt>
      <trkpt lat="41.003567" lon="-3.439964">
        <ele>1171.0</ele>
        <time>2018-02-25T10:29:39Z</time>
      </trkpt>
      <trkpt lat="41.003492" lon="-3.439883">
        <ele>1174.0</ele>
        <time>2018-02-25T10:29:48Z</time>
      </trkpt>
      <trkpt lat="41.003355" lon="-3.43985">
        <ele>1173.0</ele>
        <time>2018-02-25T10:30:02Z</time>
      </trkpt>
      <trkpt lat="41.003166" lon="-3.439895">
        <ele>1170.0</ele>
        <time>2018-02-25T10:30:19Z</time>
      </trkpt>
      <trkpt lat="41.002992" lon="-3.43987">
        <ele>1173.0</ele>
        <time>2018-02-25T10:30:34Z</time>
      </trkpt>
      <trkpt lat="41.00284" lon="-3.439814">
        <ele>1173.0</ele>
        <time>2018-02-25T10:30:50Z</time>
      </trkpt>
      <trkpt lat="41.002709" lon="-3.439801">
        <ele>1173.0</ele>
        <time>2018-02-25T10:31:05Z</time>
      </trkpt>
      <trkpt lat="41.002601" lon="-3.439827">
        <ele>1171.0</ele>
        <time>2018-02-25T10:31:17Z</time>
      </trkpt>
      <trkpt lat="41.002423" lon="-3.439792">
        <ele>1174.0</ele>
        <time>2018-02-25T10:31:32Z</time>
      </trkpt>
      <trkpt lat="41.002262" lon="-3.439776">
        <ele>1177.0</ele>
        <time>2018-02-25T10:31:47Z</time>
      </trkpt>
      <trkpt lat="41.002132" lon="-3.439737">
        <ele>1175.0</ele>
        <time>2018-02-25T10:32:02Z</time>
      </trkpt>
      <trkpt lat="41.002021" lon="-3.439725">
        <ele>1177.0</ele>
        <time>2018-02-25T10:32:13Z</time>
      </trkpt>
      <trkpt lat="41.001892" lon="-3.439753">
        <ele>1179.0</ele>
        <time>2018-02-25T10:32:27Z</time>
      </trkpt>
      <trkpt lat="41.001729" lon="-3.439752">
        <ele>1179.0</ele>
        <time>2018-02-25T10:32:41Z</time>
      </trkpt>
      <trkpt lat="41.001623" lon="-3.439746">
        <ele>1180.0</ele>
        <time>2018-02-25T10:32:51Z</time>
      </trkpt>
      <trkpt lat="41.001483" lon="-3.439726">
        <ele>1182.0</ele>
        <time>2018-02-25T10:33:07Z</time>
      </trkpt>
      <trkpt lat="41.00136" lon="-3.439672">
        <ele>1182.0</ele>
        <time>2018-02-25T10:33:17Z</time>
      </trkpt>
      <trkpt lat="41.001221" lon="-3.439658">
        <ele>1185.0</ele>
        <time>2018-02-25T10:33:29Z</time>
      </trkpt>
      <trkpt lat="41.001002" lon="-3.439645">
        <ele>1183.0</ele>
        <time>2018-02-25T10:33:48Z</time>
      </trkpt>
      <trkpt lat="41.000791" lon="-3.439681">
        <ele>1184.0</ele>
        <time>2018-02-25T10:34:07Z</time>
      </trkpt>
      <trkpt lat="41.000549" lon="-3.439682">
        <ele>1186.0</ele>
        <time>2018-02-25T10:34:26Z</time>
      </trkpt>
      <trkpt lat="41.000397" lon="-3.439692">
        <ele>1188.0</ele>
        <time>2018-02-25T10:34:40Z</time>
      </trkpt>
      <trkpt lat="41.00022" lon="-3.439665">
        <ele>1189.0</ele>
        <time>2018-02-25T10:35:00Z</time>
      </trkpt>
      <trkpt lat="41.000083" lon="-3.439584">
        <ele>1186.0</ele>
        <time>2018-02-25T10:35:15Z</time>
      </trkpt>
      <trkpt lat="40.999936" lon="-3.43964">
        <ele>1186.0</ele>
        <time>2018-02-25T10:35:32Z</time>
      </trkpt>
      <trkpt lat="40.999712" lon="-3.439694">
        <ele>1188.0</ele>
        <time>2018-02-25T10:35:50Z</time>
      </trkpt>
      <trkpt lat="40.999538" lon="-3.439725">
        <ele>1190.0</ele>
        <time>2018-02-25T10:36:08Z</time>
      </trkpt>
      <trkpt lat="40.999404" lon="-3.439685">
        <ele>1190.0</ele>
        <time>2018-02-25T10:36:18Z</time>
      </trkpt>
      <trkpt lat="40.999192" lon="-3.43959">
        <ele>1194.0</ele>
        <time>2018-02-25T10:36:34Z</time>
      </trkpt>
      <trkpt lat="40.999061" lon="-3.439537">
        <ele>1187.0</ele>
        <time>2018-02-25T10:36:48Z</time>
      </trkpt>
      <trkpt lat="40.998963" lon="-3.439412">
        <ele>1191.0</ele>
        <time>2018-02-25T10:36:57Z</time>
      </trkpt>
      <trkpt lat="40.998847" lon="-3.439307">
        <ele>1193.0</ele>
        <time>2018-02-25T10:37:09Z</time>
      </trkpt>
      <trkpt lat="40.998681" lon="-3.439201">
        <ele>1193.0</ele>
        <time>2018-02-25T10:37:25Z</time>
      </trkpt>
      <trkpt lat="40.998547" lon="-3.439075">
        <ele>1192.0</ele>
        <time>2018-02-25T10:37:41Z</time>
      </trkpt>
      <trkpt lat="40.998388" lon="-3.438956">
        <ele>1195.0</ele>
        <time>2018-02-25T10:37:58Z</time>
      </trkpt>
      <trkpt lat="40.998215" lon="-3.438865">
        <ele>1190.0</ele>
        <time>2018-02-25T10:38:13Z</time>
      </trkpt>
      <trkpt lat="40.998084" lon="-3.43881">
        <ele>1191.0</ele>
        <time>2018-02-25T10:38:28Z</time>
      </trkpt>
      <trkpt lat="40.997881" lon="-3.438725">
        <ele>1189.0</ele>
        <time>2018-02-25T10:38:46Z</time>
      </trkpt>
      <trkpt lat="40.997746" lon="-3.438671">
        <ele>1193.0</ele>
        <time>2018-02-25T10:38:58Z</time>
      </trkpt>
      <trkpt lat="40.997553" lon="-3.438659">
        <ele>1190.0</ele>
        <time>2018-02-25T10:39:15Z</time>
      </trkpt>
      <trkpt lat="40.997392" lon="-3.438635">
        <ele>1188.0</ele>
        <time>2018-02-25T10:39:29Z</time>
      </trkpt>
      <trkpt lat="40.997238" lon="-3.438644">
        <ele>1188.0</ele>
        <time>2018-02-25T10:39:42Z</time>
      </trkpt>
      <trkpt lat="40.997103" lon="-3.438711">
        <ele>1192.0</ele>
        <time>2018-02-25T10:39:57Z</time>
      </trkpt>
      <trkpt lat="40.996933" lon="-3.438767">
        <ele>1193.0</ele>
        <time>2018-02-25T10:40:12Z</time>
      </trkpt>
      <trkpt lat="40.996759" lon="-3.438844">
        <ele>1193.0</ele>
        <time>2018-02-25T10:40:28Z</time>
      </trkpt>
      <trkpt lat="40.99656" lon="-3.43889">
        <ele>1191.0</ele>
        <time>2018-02-25T10:40:47Z</time>
      </trkpt>
      <trkpt lat="40.996403" lon="-3.438894">
        <ele>1191.0</ele>
        <time>2018-02-25T10:41:02Z</time>
      </trkpt>
      <trkpt lat="40.996282" lon="-3.438902">
        <ele>1188.0</ele>
        <time>2018-02-25T10:41:15Z</time>
      </trkpt>
      <trkpt lat="40.996161" lon="-3.438913">
        <ele>1187.0</ele>
        <time>2018-02-25T10:41:26Z</time>
      </trkpt>
      <trkpt lat="40.996008" lon="-3.438902">
        <ele>1188.0</ele>
        <time>2018-02-25T10:41:39Z</time>
      </trkpt>
      <trkpt lat="40.995854" lon="-3.438912">
        <ele>1191.0</ele>
        <time>2018-02-25T10:41:53Z</time>
      </trkpt>
      <trkpt lat="40.995664" lon="-3.438899">
        <ele>1191.0</ele>
        <time>2018-02-25T10:42:09Z</time>
      </trkpt>
      <trkpt lat="40.995506" lon="-3.438852">
        <ele>1193.0</ele>
        <time>2018-02-25T10:42:24Z</time>
      </trkpt>
      <trkpt lat="40.995356" lon="-3.438852">
        <ele>1192.0</ele>
        <time>2018-02-25T10:42:38Z</time>
      </trkpt>
      <trkpt lat="40.995356" lon="-3.438852">
        <ele>1194.0</ele>
        <time>2018-02-25T10:42:45Z</time>
      </trkpt>
      <trkpt lat="40.995356" lon="-3.438852">
        <ele>1195.0</ele>
        <time>2018-02-25T10:42:50Z</time>
      </trkpt>
      <trkpt lat="40.995247" lon="-3.43886">
        <ele>1197.0</ele>
        <time>2018-02-25T10:42:50Z</time>
      </trkpt>
      <trkpt lat="40.995099" lon="-3.438925">
        <ele>1197.0</ele>
        <time>2018-02-25T10:43:03Z</time>
      </trkpt>
      <trkpt lat="40.994884" lon="-3.439015">
        <ele>1197.0</ele>
        <time>2018-02-25T10:43:21Z</time>
      </trkpt>
      <trkpt lat="40.994677" lon="-3.439052">
        <ele>1197.0</ele>
        <time>2018-02-25T10:43:40Z</time>
      </trkpt>
      <trkpt lat="40.994501" lon="-3.438988">
        <ele>1199.0</ele>
        <time>2018-02-25T10:43:56Z</time>
      </trkpt>
      <trkpt lat="40.994421" lon="-3.438962">
        <ele>1198.0</ele>
        <time>2018-02-25T10:44:05Z</time>
      </trkpt>
      <trkpt lat="40.994269" lon="-3.438905">
        <ele>1196.0</ele>
        <time>2018-02-25T10:44:18Z</time>
      </trkpt>
      <trkpt lat="40.994105" lon="-3.438846">
        <ele>1196.0</ele>
        <time>2018-02-25T10:44:34Z</time>
      </trkpt>
      <trkpt lat="40.993944" lon="-3.438856">
        <ele>1200.0</ele>
        <time>2018-02-25T10:44:50Z</time>
      </trkpt>
      <trkpt lat="40.993769" lon="-3.438898">
        <ele>1201.0</ele>
        <time>2018-02-25T10:45:06Z</time>
      </trkpt>
      <trkpt lat="40.993591" lon="-3.438918">
        <ele>1203.0</ele>
        <time>2018-02-25T10:45:24Z</time>
      </trkpt>
      <trkpt lat="40.993435" lon="-3.438942">
        <ele>1204.0</ele>
        <time>2018-02-25T10:45:37Z</time>
      </trkpt>
      <trkpt lat="40.993313" lon="-3.438936">
        <ele>1202.0</ele>
        <time>2018-02-25T10:45:45Z</time>
      </trkpt>
      <trkpt lat="40.993135" lon="-3.438929">
        <ele>1202.0</ele>
        <time>2018-02-25T10:45:57Z</time>
      </trkpt>
      <trkpt lat="40.992959" lon="-3.438938">
        <ele>1200.0</ele>
        <time>2018-02-25T10:46:11Z</time>
      </trkpt>
      <trkpt lat="40.992777" lon="-3.438994">
        <ele>1199.0</ele>
        <time>2018-02-25T10:46:25Z</time>
      </trkpt>
      <trkpt lat="40.992558" lon="-3.439059">
        <ele>1199.0</ele>
        <time>2018-02-25T10:46:41Z</time>
      </trkpt>
      <trkpt lat="40.992383" lon="-3.439065">
        <ele>1200.0</ele>
        <time>2018-02-25T10:46:55Z</time>
      </trkpt>
      <trkpt lat="40.992225" lon="-3.439038">
        <ele>1199.0</ele>
        <time>2018-02-25T10:47:08Z</time>
      </trkpt>
      <trkpt lat="40.992041" lon="-3.439006">
        <ele>1196.0</ele>
        <time>2018-02-25T10:47:21Z</time>
      </trkpt>
      <trkpt lat="40.991926" lon="-3.438988">
        <ele>1187.0</ele>
        <time>2018-02-25T10:47:30Z</time>
      </trkpt>
      <trkpt lat="40.991817" lon="-3.43898">
        <ele>1189.0</ele>
        <time>2018-02-25T10:47:38Z</time>
      </trkpt>
      <trkpt lat="40.991648" lon="-3.439024">
        <ele>1188.0</ele>
        <time>2018-02-25T10:47:52Z</time>
      </trkpt>
      <trkpt lat="40.991423" lon="-3.439074">
        <ele>1187.0</ele>
        <time>2018-02-25T10:48:10Z</time>
      </trkpt>
      <trkpt lat="40.991298" lon="-3.439102">
        <ele>1185.0</ele>
        <time>2018-02-25T10:48:21Z</time>
      </trkpt>
      <trkpt lat="40.991182" lon="-3.439171">
        <ele>1183.0</ele>
        <time>2018-02-25T10:48:32Z</time>
      </trkpt>
      <trkpt lat="40.991059" lon="-3.439274">
        <ele>1183.0</ele>
        <time>2018-02-25T10:48:45Z</time>
      </trkpt>
      <trkpt lat="40.990929" lon="-3.439382">
        <ele>1182.0</ele>
        <time>2018-02-25T10:48:58Z</time>
      </trkpt>
      <trkpt lat="40.990778" lon="-3.439438">
        <ele>1180.0</ele>
        <time>2018-02-25T10:49:12Z</time>
      </trkpt>
      <trkpt lat="40.990602" lon="-3.43942">
        <ele>1181.0</ele>
        <time>2018-02-25T10:49:30Z</time>
      </trkpt>
      <trkpt lat="40.990456" lon="-3.43939">
        <ele>1183.0</ele>
        <time>2018-02-25T10:49:45Z</time>
      </trkpt>
      <trkpt lat="40.990265" lon="-3.439327">
        <ele>1181.0</ele>
        <time>2018-02-25T10:50:01Z</time>
      </trkpt>
      <trkpt lat="40.990121" lon="-3.439087">
        <ele>1190.0</ele>
        <time>2018-02-25T10:50:20Z</time>
      </trkpt>
      <trkpt lat="40.990137" lon="-3.438871">
        <ele>1185.0</ele>
        <time>2018-02-25T10:50:34Z</time>
      </trkpt>
      <trkpt lat="40.99012" lon="-3.43866">
        <ele>1178.0</ele>
        <time>2018-02-25T10:50:49Z</time>
      </trkpt>
      <trkpt lat="40.990118" lon="-3.438434">
        <ele>1173.0</ele>
        <time>2018-02-25T10:51:06Z</time>
      </trkpt>
      <trkpt lat="40.989972" lon="-3.438258">
        <ele>1168.0</ele>
        <time>2018-02-25T10:51:26Z</time>
      </trkpt>
      <trkpt lat="40.989825" lon="-3.438207">
        <ele>1167.0</ele>
        <time>2018-02-25T10:51:39Z</time>
      </trkpt>
      <trkpt lat="40.989709" lon="-3.438124">
        <ele>1163.0</ele>
        <time>2018-02-25T10:51:52Z</time>
      </trkpt>
      <trkpt lat="40.98958" lon="-3.437993">
        <ele>1166.0</ele>
        <time>2018-02-25T10:52:08Z</time>
      </trkpt>
      <trkpt lat="40.989485" lon="-3.437878">
        <ele>1161.0</ele>
        <time>2018-02-25T10:52:20Z</time>
      </trkpt>
      <trkpt lat="40.989387" lon="-3.43773">
        <ele>1156.0</ele>
        <time>2018-02-25T10:52:33Z</time>
      </trkpt>
      <trkpt lat="40.989294" lon="-3.437539">
        <ele>1152.0</ele>
        <time>2018-02-25T10:52:49Z</time>
      </trkpt>
      <trkpt lat="40.989099" lon="-3.437358">
        <ele>1150.0</ele>
        <time>2018-02-25T10:53:08Z</time>
      </trkpt>
      <trkpt lat="40.988961" lon="-3.437227">
        <ele>1145.0</ele>
        <time>2018-02-25T10:53:24Z</time>
      </trkpt>
      <trkpt lat="40.988774" lon="-3.437097">
        <ele>1146.0</ele>
        <time>2018-02-25T10:53:43Z</time>
      </trkpt>
      <trkpt lat="40.988651" lon="-3.436999">
        <ele>1149.0</ele>
        <time>2018-02-25T10:53:55Z</time>
      </trkpt>
      <trkpt lat="40.988526" lon="-3.436868">
        <ele>1150.0</ele>
        <time>2018-02-25T10:54:10Z</time>
      </trkpt>
      <trkpt lat="40.988471" lon="-3.436777">
        <ele>1156.0</ele>
        <time>2018-02-25T10:54:18Z</time>
      </trkpt>
      <trkpt lat="40.988409" lon="-3.436544">
        <ele>1157.0</ele>
        <time>2018-02-25T10:54:34Z</time>
      </trkpt>
      <trkpt lat="40.98841" lon="-3.436246">
        <ele>1158.0</ele>
        <time>2018-02-25T10:54:53Z</time>
      </trkpt>
      <trkpt lat="40.988406" lon="-3.436053">
        <ele>1156.0</ele>
        <time>2018-02-25T10:55:07Z</time>
      </trkpt>
      <trkpt lat="40.988425" lon="-3.435855">
        <ele>1159.0</ele>
        <time>2018-02-25T10:55:21Z</time>
      </trkpt>
      <trkpt lat="40.988381" lon="-3.435664">
        <ele>1153.0</ele>
        <time>2018-02-25T10:55:35Z</time>
      </trkpt>
      <trkpt lat="40.988334" lon="-3.435512">
        <ele>1147.0</ele>
        <time>2018-02-25T10:55:45Z</time>
      </trkpt>
      <trkpt lat="40.988328" lon="-3.435277">
        <ele>1127.0</ele>
        <time>2018-02-25T10:56:04Z</time>
      </trkpt>
      <trkpt lat="40.988428" lon="-3.435069">
        <ele>1127.0</ele>
        <time>2018-02-25T10:56:24Z</time>
      </trkpt>
      <trkpt lat="40.988467" lon="-3.435003">
        <ele>1122.0</ele>
        <time>2018-02-25T10:56:36Z</time>
      </trkpt>
      <trkpt lat="40.988467" lon="-3.435003">
        <ele>1129.0</ele>
        <time>2018-02-25T10:56:44Z</time>
      </trkpt>
      <trkpt lat="40.988467" lon="-3.435003">
        <ele>1153.0</ele>
        <time>2018-02-25T10:56:55Z</time>
      </trkpt>
      <trkpt lat="40.98825" lon="-3.435051">
        <ele>1155.0</ele>
        <time>2018-02-25T10:56:55Z</time>
      </trkpt>
      <trkpt lat="40.98825" lon="-3.435051">
        <ele>1156.0</ele>
        <time>2018-02-25T10:57:02Z</time>
      </trkpt>
      <trkpt lat="40.98825" lon="-3.435051">
        <ele>1154.0</ele>
        <time>2018-02-25T10:57:02Z</time>
      </trkpt>
      <trkpt lat="40.98825" lon="-3.435051">
        <ele>1152.0</ele>
        <time>2018-02-25T10:57:15Z</time>
      </trkpt>
      <trkpt lat="40.988201" lon="-3.434859">
        <ele>1156.0</ele>
        <time>2018-02-25T10:57:15Z</time>
      </trkpt>
      <trkpt lat="40.988199" lon="-3.434796">
        <ele>1156.0</ele>
        <time>2018-02-25T10:57:21Z</time>
      </trkpt>
      <trkpt lat="40.988199" lon="-3.434796">
        <ele>1164.0</ele>
        <time>2018-02-25T10:57:28Z</time>
      </trkpt>
      <trkpt lat="40.988199" lon="-3.434796">
        <ele>1169.0</ele>
        <time>2018-02-25T11:00:25Z</time>
      </trkpt>
      <trkpt lat="40.987978" lon="-3.434773">
        <ele>1176.0</ele>
        <time>2018-02-25T11:00:25Z</time>
      </trkpt>
      <trkpt lat="40.987854" lon="-3.435003">
        <ele>1169.0</ele>
        <time>2018-02-25T11:00:43Z</time>
      </trkpt>
      <trkpt lat="40.987806" lon="-3.435169">
        <ele>1169.0</ele>
        <time>2018-02-25T11:00:57Z</time>
      </trkpt>
      <trkpt lat="40.987654" lon="-3.435366">
        <ele>1163.0</ele>
        <time>2018-02-25T11:01:14Z</time>
      </trkpt>
      <trkpt lat="40.987504" lon="-3.435461">
        <ele>1170.0</ele>
        <time>2018-02-25T11:01:27Z</time>
      </trkpt>
      <trkpt lat="40.98735" lon="-3.435497">
        <ele>1187.0</ele>
        <time>2018-02-25T11:01:44Z</time>
      </trkpt>
      <trkpt lat="40.98735" lon="-3.435497">
        <ele>1185.0</ele>
        <time>2018-02-25T11:01:52Z</time>
      </trkpt>
      <trkpt lat="40.98735" lon="-3.435497">
        <ele>1180.0</ele>
        <time>2018-02-25T11:01:52Z</time>
      </trkpt>
      <trkpt lat="40.98735" lon="-3.435497">
        <ele>1187.0</ele>
        <time>2018-02-25T11:01:58Z</time>
      </trkpt>
      <trkpt lat="40.987267" lon="-3.435559">
        <ele>1192.0</ele>
        <time>2018-02-25T11:01:58Z</time>
      </trkpt>
      <trkpt lat="40.987174" lon="-3.435551">
        <ele>1195.0</ele>
        <time>2018-02-25T11:02:08Z</time>
      </trkpt>
      <trkpt lat="40.987174" lon="-3.435551">
        <ele>1196.0</ele>
        <time>2018-02-25T11:02:15Z</time>
      </trkpt>
      <trkpt lat="40.987174" lon="-3.435551">
        <ele>1192.0</ele>
        <time>2018-02-25T11:03:03Z</time>
      </trkpt>
      <trkpt lat="40.986857" lon="-3.435599">
        <ele>1191.0</ele>
        <time>2018-02-25T11:03:03Z</time>
      </trkpt>
      <trkpt lat="40.986734" lon="-3.435722">
        <ele>1190.0</ele>
        <time>2018-02-25T11:03:16Z</time>
      </trkpt>
      <trkpt lat="40.986655" lon="-3.435811">
        <ele>1187.0</ele>
        <time>2018-02-25T11:03:27Z</time>
      </trkpt>
      <trkpt lat="40.986655" lon="-3.435811">
        <ele>1189.0</ele>
        <time>2018-02-25T11:03:35Z</time>
      </trkpt>
      <trkpt lat="40.986655" lon="-3.435811">
        <ele>1191.0</ele>
        <time>2018-02-25T11:04:17Z</time>
      </trkpt>
      <trkpt lat="40.986529" lon="-3.436194">
        <ele>1191.0</ele>
        <time>2018-02-25T11:04:17Z</time>
      </trkpt>
      <trkpt lat="40.986498" lon="-3.436408">
        <ele>1193.0</ele>
        <time>2018-02-25T11:04:37Z</time>
      </trkpt>
      <trkpt lat="40.986345" lon="-3.436695">
        <ele>1202.0</ele>
        <time>2018-02-25T11:06:26Z</time>
      </trkpt>
      <trkpt lat="40.986335" lon="-3.436851">
        <ele>1205.0</ele>
        <time>2018-02-25T11:06:38Z</time>
      </trkpt>
      <trkpt lat="40.986254" lon="-3.437213">
        <ele>1202.0</ele>
        <time>2018-02-25T11:09:47Z</time>
      </trkpt>
      <trkpt lat="40.98617" lon="-3.437381">
        <ele>1204.0</ele>
        <time>2018-02-25T11:10:03Z</time>
      </trkpt>
      <trkpt lat="40.986115" lon="-3.437657">
        <ele>1210.0</ele>
        <time>2018-02-25T11:10:22Z</time>
      </trkpt>
      <trkpt lat="40.986094" lon="-3.437786">
        <ele>1210.0</ele>
        <time>2018-02-25T11:10:31Z</time>
      </trkpt>
      <trkpt lat="40.986094" lon="-3.437786">
        <ele>1216.0</ele>
        <time>2018-02-25T11:10:39Z</time>
      </trkpt>
      <trkpt lat="40.986094" lon="-3.437786">
        <ele>1215.0</ele>
        <time>2018-02-25T11:10:44Z</time>
      </trkpt>
      <trkpt lat="40.986031" lon="-3.437871">
        <ele>1213.0</ele>
        <time>2018-02-25T11:10:44Z</time>
      </trkpt>
      <trkpt lat="40.985923" lon="-3.437959">
        <ele>1221.0</ele>
        <time>2018-02-25T11:10:59Z</time>
      </trkpt>
      <trkpt lat="40.985803" lon="-3.437986">
        <ele>1227.0</ele>
        <time>2018-02-25T11:11:12Z</time>
      </trkpt>
      <trkpt lat="40.985642" lon="-3.437981">
        <ele>1227.0</ele>
        <time>2018-02-25T11:11:32Z</time>
      </trkpt>
      <trkpt lat="40.985395" lon="-3.437776">
        <ele>1228.0</ele>
        <time>2018-02-25T11:12:13Z</time>
      </trkpt>
      <trkpt lat="40.985291" lon="-3.437705">
        <ele>1228.0</ele>
        <time>2018-02-25T11:12:32Z</time>
      </trkpt>
      <trkpt lat="40.985104" lon="-3.437425">
        <ele>1232.0</ele>
        <time>2018-02-25T11:13:14Z</time>
      </trkpt>
      <trkpt lat="40.985104" lon="-3.437425">
        <ele>1239.0</ele>
        <time>2018-02-25T11:13:21Z</time>
      </trkpt>
      <trkpt lat="40.985104" lon="-3.437425">
        <ele>1244.0</ele>
        <time>2018-02-25T11:13:21Z</time>
      </trkpt>
      <trkpt lat="40.985104" lon="-3.437425">
        <ele>1247.0</ele>
        <time>2018-02-25T11:13:36Z</time>
      </trkpt>
      <trkpt lat="40.984998" lon="-3.437322">
        <ele>1251.0</ele>
        <time>2018-02-25T11:13:36Z</time>
      </trkpt>
      <trkpt lat="40.984895" lon="-3.437132">
        <ele>1251.0</ele>
        <time>2018-02-25T11:13:59Z</time>
      </trkpt>
      <trkpt lat="40.984684" lon="-3.436888">
        <ele>1254.0</ele>
        <time>2018-02-25T11:14:40Z</time>
      </trkpt>
      <trkpt lat="40.984373" lon="-3.436873">
        <ele>1255.0</ele>
        <time>2018-02-25T11:15:34Z</time>
      </trkpt>
      <trkpt lat="40.984087" lon="-3.436861">
        <ele>1264.0</ele>
        <time>2018-02-25T11:16:14Z</time>
      </trkpt>
      <trkpt lat="40.983946" lon="-3.43693">
        <ele>1264.0</ele>
        <time>2018-02-25T11:16:36Z</time>
      </trkpt>
      <trkpt lat="40.983946" lon="-3.43693">
        <ele>1262.0</ele>
        <time>2018-02-25T11:18:39Z</time>
      </trkpt>
      <trkpt lat="40.983579" lon="-3.436964">
        <ele>1262.0</ele>
        <time>2018-02-25T11:18:48Z</time>
      </trkpt>
      <trkpt lat="40.983434" lon="-3.436983">
        <ele>1268.0</ele>
        <time>2018-02-25T11:19:02Z</time>
      </trkpt>
      <trkpt lat="40.983236" lon="-3.436949">
        <ele>1270.0</ele>
        <time>2018-02-25T11:19:21Z</time>
      </trkpt>
      <trkpt lat="40.98297" lon="-3.436916">
        <ele>1270.0</ele>
        <time>2018-02-25T11:20:06Z</time>
      </trkpt>
      <trkpt lat="40.982669" lon="-3.436933">
        <ele>1272.0</ele>
        <time>2018-02-25T11:20:46Z</time>
      </trkpt>
      <trkpt lat="40.982621" lon="-3.436918">
        <ele>1273.0</ele>
        <time>2018-02-25T11:20:53Z</time>
      </trkpt>
      <trkpt lat="40.982621" lon="-3.436918">
        <ele>1283.0</ele>
        <time>2018-02-25T11:21:00Z</time>
      </trkpt>
      <trkpt lat="40.982621" lon="-3.436918">
        <ele>1290.0</ele>
        <time>2018-02-25T11:21:08Z</time>
      </trkpt>
      <trkpt lat="40.982536" lon="-3.436984">
        <ele>1295.0</ele>
        <time>2018-02-25T11:21:08Z</time>
      </trkpt>
      <trkpt lat="40.982278" lon="-3.437069">
        <ele>1301.0</ele>
        <time>2018-02-25T11:21:46Z</time>
      </trkpt>
      <trkpt lat="40.982244" lon="-3.437081">
        <ele>1320.0</ele>
        <time>2018-02-25T11:21:51Z</time>
      </trkpt>
      <trkpt lat="40.982244" lon="-3.437081">
        <ele>1313.0</ele>
        <time>2018-02-25T11:21:58Z</time>
      </trkpt>
      <trkpt lat="40.982244" lon="-3.437081">
        <ele>1329.0</ele>
        <time>2018-02-25T11:23:35Z</time>
      </trkpt>
      <trkpt lat="40.98213" lon="-3.436841">
        <ele>1329.0</ele>
        <time>2018-02-25T11:23:35Z</time>
      </trkpt>
      <trkpt lat="40.98223" lon="-3.436776">
        <ele>1333.0</ele>
        <time>2018-02-25T11:23:46Z</time>
      </trkpt>
      <trkpt lat="40.982293" lon="-3.436688">
        <ele>1336.0</ele>
        <time>2018-02-25T11:23:57Z</time>
      </trkpt>
      <trkpt lat="40.982293" lon="-3.436688">
        <ele>1337.0</ele>
        <time>2018-02-25T11:24:04Z</time>
      </trkpt>
      <trkpt lat="40.982293" lon="-3.436688">
        <ele>1335.0</ele>
        <time>2018-02-25T11:24:12Z</time>
      </trkpt>
      <trkpt lat="40.982366" lon="-3.43661">
        <ele>1348.0</ele>
        <time>2018-02-25T11:24:12Z</time>
      </trkpt>
      <trkpt lat="40.982366" lon="-3.43661">
        <ele>1348.0</ele>
        <time>2018-02-25T11:24:19Z</time>
      </trkpt>
      <trkpt lat="40.982366" lon="-3.43661">
        <ele>1354.0</ele>
        <time>2018-02-25T11:24:19Z</time>
      </trkpt>
      <trkpt lat="40.982366" lon="-3.43661">
        <ele>1354.0</ele>
        <time>2018-02-25T11:25:13Z</time>
      </trkpt>
      <trkpt lat="40.982243" lon="-3.436508">
        <ele>1358.0</ele>
        <time>2018-02-25T11:25:13Z</time>
      </trkpt>
      <trkpt lat="40.981985" lon="-3.436582">
        <ele>1358.0</ele>
        <time>2018-02-25T11:25:58Z</time>
      </trkpt>
      <trkpt lat="40.981693" lon="-3.4367">
        <ele>1373.0</ele>
        <time>2018-02-25T11:26:45Z</time>
      </trkpt>
      <trkpt lat="40.981668" lon="-3.436699">
        <ele>1375.0</ele>
        <time>2018-02-25T11:26:49Z</time>
      </trkpt>
      <trkpt lat="40.981668" lon="-3.436699">
        <ele>1386.0</ele>
        <time>2018-02-25T11:26:56Z</time>
      </trkpt>
      <trkpt lat="40.981668" lon="-3.436699">
        <ele>1394.0</ele>
        <time>2018-02-25T11:27:02Z</time>
      </trkpt>
      <trkpt lat="40.981607" lon="-3.436715">
        <ele>1386.0</ele>
        <time>2018-02-25T11:27:02Z</time>
      </trkpt>
      <trkpt lat="40.981607" lon="-3.436715">
        <ele>1388.0</ele>
        <time>2018-02-25T11:29:13Z</time>
      </trkpt>
      <trkpt lat="40.981693" lon="-3.436365">
        <ele>1411.0</ele>
        <time>2018-02-25T11:33:28Z</time>
      </trkpt>
      <trkpt lat="40.981754" lon="-3.436199">
        <ele>1414.0</ele>
        <time>2018-02-25T11:33:46Z</time>
      </trkpt>
      <trkpt lat="40.981754" lon="-3.436199">
        <ele>1421.0</ele>
        <time>2018-02-25T11:33:53Z</time>
      </trkpt>
      <trkpt lat="40.981754" lon="-3.436199">
        <ele>1424.0</ele>
        <time>2018-02-25T11:33:53Z</time>
      </trkpt>
      <trkpt lat="40.981754" lon="-3.436199">
        <ele>1428.0</ele>
        <time>2018-02-25T11:34:03Z</time>
      </trkpt>
      <trkpt lat="40.981841" lon="-3.436089">
        <ele>1434.0</ele>
        <time>2018-02-25T11:34:03Z</time>
      </trkpt>
      <trkpt lat="40.982089" lon="-3.435866">
        <ele>1433.0</ele>
        <time>2018-02-25T11:35:05Z</time>
      </trkpt>
      <trkpt lat="40.982177" lon="-3.435551">
        <ele>1433.0</ele>
        <time>2018-02-25T11:36:17Z</time>
      </trkpt>
      <trkpt lat="40.982142" lon="-3.435179">
        <ele>1437.0</ele>
        <time>2018-02-25T11:37:15Z</time>
      </trkpt>
      <trkpt lat="40.982151" lon="-3.434782">
        <ele>1434.0</ele>
        <time>2018-02-25T11:38:47Z</time>
      </trkpt>
      <trkpt lat="40.982244" lon="-3.434411">
        <ele>1438.0</ele>
        <time>2018-02-25T11:40:21Z</time>
      </trkpt>
      <trkpt lat="40.982371" lon="-3.434059">
        <ele>1436.0</ele>
        <time>2018-02-25T11:42:15Z</time>
      </trkpt>
      <trkpt lat="40.982382" lon="-3.433685">
        <ele>1440.0</ele>
        <time>2018-02-25T11:43:30Z</time>
      </trkpt>
      <trkpt lat="40.982407" lon="-3.433338">
        <ele>1440.0</ele>
        <time>2018-02-25T11:44:26Z</time>
      </trkpt>
      <trkpt lat="40.982407" lon="-3.433338">
        <ele>1440.0</ele>
        <time>2018-02-25T11:49:00Z</time>
      </trkpt>
      <trkpt lat="40.982568" lon="-3.433174">
        <ele>1448.0</ele>
        <time>2018-02-25T11:57:59Z</time>
      </trkpt>
      <trkpt lat="40.982853" lon="-3.433009">
        <ele>1458.0</ele>
        <time>2018-02-25T11:59:22Z</time>
      </trkpt>
      <trkpt lat="40.982871" lon="-3.432986">
        <ele>1465.0</ele>
        <time>2018-02-25T11:59:27Z</time>
      </trkpt>
      <trkpt lat="40.982871" lon="-3.432986">
        <ele>1476.0</ele>
        <time>2018-02-25T11:59:35Z</time>
      </trkpt>
      <trkpt lat="40.982871" lon="-3.432986">
        <ele>1491.0</ele>
        <time>2018-02-25T11:59:42Z</time>
      </trkpt>
      <trkpt lat="40.982835" lon="-3.432896">
        <ele>1486.0</ele>
        <time>2018-02-25T11:59:42Z</time>
      </trkpt>
      <trkpt lat="40.983057" lon="-3.432701">
        <ele>1509.0</ele>
        <time>2018-02-25T12:00:29Z</time>
      </trkpt>
      <trkpt lat="40.983057" lon="-3.432701">
        <ele>1514.0</ele>
        <time>2018-02-25T12:00:36Z</time>
      </trkpt>
      <trkpt lat="40.983057" lon="-3.432701">
        <ele>1513.0</ele>
        <time>2018-02-25T12:00:36Z</time>
      </trkpt>
      <trkpt lat="40.983057" lon="-3.432701">
        <ele>1513.0</ele>
        <time>2018-02-25T12:02:01Z</time>
      </trkpt>
      <trkpt lat="40.983326" lon="-3.432561">
        <ele>1521.0</ele>
        <time>2018-02-25T12:02:01Z</time>
      </trkpt>
      <trkpt lat="40.983326" lon="-3.432561">
        <ele>1538.0</ele>
        <time>2018-02-25T12:04:01Z</time>
      </trkpt>
      <trkpt lat="40.983417" lon="-3.432298">
        <ele>1551.0</ele>
        <time>2018-02-25T12:04:43Z</time>
      </trkpt>
      <trkpt lat="40.983417" lon="-3.432298">
        <ele>1554.0</ele>
        <time>2018-02-25T12:07:03Z</time>
      </trkpt>
      <trkpt lat="40.983267" lon="-3.431944">
        <ele>1565.0</ele>
        <time>2018-02-25T12:08:39Z</time>
      </trkpt>
      <trkpt lat="40.983332" lon="-3.431557">
        <ele>1576.0</ele>
        <time>2018-02-25T12:09:24Z</time>
      </trkpt>
      <trkpt lat="40.983522" lon="-3.431248">
        <ele>1576.0</ele>
        <time>2018-02-25T12:10:40Z</time>
      </trkpt>
      <trkpt lat="40.983612" lon="-3.430875">
        <ele>1586.0</ele>
        <time>2018-02-25T12:11:33Z</time>
      </trkpt>
      <trkpt lat="40.983755" lon="-3.430548">
        <ele>1589.0</ele>
        <time>2018-02-25T12:12:26Z</time>
      </trkpt>
      <trkpt lat="40.983821" lon="-3.43048">
        <ele>1589.0</ele>
        <time>2018-02-25T12:12:35Z</time>
      </trkpt>
      <trkpt lat="40.983821" lon="-3.43048">
        <ele>1599.0</ele>
        <time>2018-02-25T12:12:42Z</time>
      </trkpt>
      <trkpt lat="40.983821" lon="-3.43048">
        <ele>1617.0</ele>
        <time>2018-02-25T12:13:58Z</time>
      </trkpt>
      <trkpt lat="40.983869" lon="-3.430023">
        <ele>1625.0</ele>
        <time>2018-02-25T12:13:58Z</time>
      </trkpt>
      <trkpt lat="40.984077" lon="-3.429749">
        <ele>1636.0</ele>
        <time>2018-02-25T12:15:03Z</time>
      </trkpt>
      <trkpt lat="40.984261" lon="-3.429462">
        <ele>1646.0</ele>
        <time>2018-02-25T12:15:59Z</time>
      </trkpt>
      <trkpt lat="40.984444" lon="-3.429151">
        <ele>1660.0</ele>
        <time>2018-02-25T12:16:46Z</time>
      </trkpt>
      <trkpt lat="40.984555" lon="-3.428821">
        <ele>1676.0</ele>
        <time>2018-02-25T12:17:28Z</time>
      </trkpt>
      <trkpt lat="40.984683" lon="-3.42846">
        <ele>1689.0</ele>
        <time>2018-02-25T12:19:33Z</time>
      </trkpt>
      <trkpt lat="40.984885" lon="-3.428156">
        <ele>1689.0</ele>
        <time>2018-02-25T12:20:27Z</time>
      </trkpt>
      <trkpt lat="40.984946" lon="-3.428035">
        <ele>1707.0</ele>
        <time>2018-02-25T12:20:39Z</time>
      </trkpt>
      <trkpt lat="40.984968" lon="-3.427869">
        <ele>1704.0</ele>
        <time>2018-02-25T12:20:56Z</time>
      </trkpt>
      <trkpt lat="40.984987" lon="-3.42779">
        <ele>1700.0</ele>
        <time>2018-02-25T12:21:05Z</time>
      </trkpt>
      <trkpt lat="40.984987" lon="-3.42779">
        <ele>1714.0</ele>
        <time>2018-02-25T12:21:14Z</time>
      </trkpt>
      <trkpt lat="40.984987" lon="-3.42779">
        <ele>1714.0</ele>
        <time>2018-02-25T12:21:19Z</time>
      </trkpt>
      <trkpt lat="40.985046" lon="-3.427749">
        <ele>1708.0</ele>
        <time>2018-02-25T12:21:19Z</time>
      </trkpt>
      <trkpt lat="40.985176" lon="-3.427419">
        <ele>1704.0</ele>
        <time>2018-02-25T12:21:56Z</time>
      </trkpt>
      <trkpt lat="40.98523" lon="-3.427233">
        <ele>1700.0</ele>
        <time>2018-02-25T12:22:16Z</time>
      </trkpt>
      <trkpt lat="40.985361" lon="-3.426845">
        <ele>1703.0</ele>
        <time>2018-02-25T12:23:09Z</time>
      </trkpt>
      <trkpt lat="40.985361" lon="-3.426845">
        <ele>1702.0</ele>
        <time>2018-02-25T12:25:54Z</time>
      </trkpt>
      <trkpt lat="40.98532" lon="-3.426634">
        <ele>1702.0</ele>
        <time>2018-02-25T12:26:09Z</time>
      </trkpt>
      <trkpt lat="40.985521" lon="-3.426352">
        <ele>1700.0</ele>
        <time>2018-02-25T12:27:32Z</time>
      </trkpt>
      <trkpt lat="40.985616" lon="-3.425966">
        <ele>1698.0</ele>
        <time>2018-02-25T12:28:52Z</time>
      </trkpt>
      <trkpt lat="40.985767" lon="-3.425594">
        <ele>1696.0</ele>
        <time>2018-02-25T12:30:03Z</time>
      </trkpt>
      <trkpt lat="40.985881" lon="-3.425237">
        <ele>1696.0</ele>
        <time>2018-02-25T12:31:28Z</time>
      </trkpt>
      <trkpt lat="40.98606" lon="-3.424934">
        <ele>1703.0</ele>
        <time>2018-02-25T12:32:04Z</time>
      </trkpt>
      <trkpt lat="40.986133" lon="-3.424531">
        <ele>1701.0</ele>
        <time>2018-02-25T12:33:09Z</time>
      </trkpt>
      <trkpt lat="40.986197" lon="-3.424159">
        <ele>1702.0</ele>
        <time>2018-02-25T12:34:20Z</time>
      </trkpt>
      <trkpt lat="40.98631" lon="-3.423847">
        <ele>1705.0</ele>
        <time>2018-02-25T12:35:28Z</time>
      </trkpt>
      <trkpt lat="40.98631" lon="-3.423847">
        <ele>1706.0</ele>
        <time>2018-02-25T12:35:36Z</time>
      </trkpt>
      <trkpt lat="40.98631" lon="-3.423847">
        <ele>1704.0</ele>
        <time>2018-02-25T12:35:36Z</time>
      </trkpt>
      <trkpt lat="40.98631" lon="-3.423847">
        <ele>1705.0</ele>
        <time>2018-02-25T12:36:27Z</time>
      </trkpt>
      <trkpt lat="40.986318" lon="-3.423536">
        <ele>1707.0</ele>
        <time>2018-02-25T12:36:27Z</time>
      </trkpt>
      <trkpt lat="40.986261" lon="-3.423169">
        <ele>1708.0</ele>
        <time>2018-02-25T12:38:07Z</time>
      </trkpt>
      <trkpt lat="40.98634" lon="-3.422822">
        <ele>1700.0</ele>
        <time>2018-02-25T12:39:04Z</time>
      </trkpt>
      <trkpt lat="40.98655" lon="-3.422553">
        <ele>1699.0</ele>
        <time>2018-02-25T12:39:55Z</time>
      </trkpt>
      <trkpt lat="40.986648" lon="-3.422176">
        <ele>1700.0</ele>
        <time>2018-02-25T12:41:06Z</time>
      </trkpt>
      <trkpt lat="40.986512" lon="-3.421836">
        <ele>1698.0</ele>
        <time>2018-02-25T12:42:10Z</time>
      </trkpt>
      <trkpt lat="40.986506" lon="-3.421764">
        <ele>1695.0</ele>
        <time>2018-02-25T12:42:17Z</time>
      </trkpt>
      <trkpt lat="40.986506" lon="-3.421764">
        <ele>1701.0</ele>
        <time>2018-02-25T12:42:24Z</time>
      </trkpt>
      <trkpt lat="40.986506" lon="-3.421764">
        <ele>1700.0</ele>
        <time>2018-02-25T12:45:33Z</time>
      </trkpt>
      <trkpt lat="40.98665" lon="-3.421387">
        <ele>1701.0</ele>
        <time>2018-02-25T12:45:33Z</time>
      </trkpt>
      <trkpt lat="40.986674" lon="-3.421268">
        <ele>1703.0</ele>
        <time>2018-02-25T12:45:43Z</time>
      </trkpt>
      <trkpt lat="40.986674" lon="-3.421268">
        <ele>1702.0</ele>
        <time>2018-02-25T12:45:51Z</time>
      </trkpt>
      <trkpt lat="40.986674" lon="-3.421268">
        <ele>1711.0</ele>
        <time>2018-02-25T12:45:58Z</time>
      </trkpt>
      <trkpt lat="40.986734" lon="-3.421185">
        <ele>1709.0</ele>
        <time>2018-02-25T12:45:58Z</time>
      </trkpt>
      <trkpt lat="40.986829" lon="-3.420825">
        <ele>1709.0</ele>
        <time>2018-02-25T12:47:04Z</time>
      </trkpt>
      <trkpt lat="40.986869" lon="-3.420476">
        <ele>1715.0</ele>
        <time>2018-02-25T12:48:31Z</time>
      </trkpt>
      <trkpt lat="40.986997" lon="-3.42019">
        <ele>1715.0</ele>
        <time>2018-02-25T12:49:34Z</time>
      </trkpt>
      <trkpt lat="40.987083" lon="-3.419824">
        <ele>1702.0</ele>
        <time>2018-02-25T12:51:31Z</time>
      </trkpt>
      <trkpt lat="40.987238" lon="-3.419517">
        <ele>1709.0</ele>
        <time>2018-02-25T12:52:45Z</time>
      </trkpt>
      <trkpt lat="40.987456" lon="-3.419279">
        <ele>1712.0</ele>
        <time>2018-02-25T12:54:19Z</time>
      </trkpt>
      <trkpt lat="40.987503" lon="-3.41892">
        <ele>1713.0</ele>
        <time>2018-02-25T12:55:55Z</time>
      </trkpt>
      <trkpt lat="40.987622" lon="-3.418557">
        <ele>1711.0</ele>
        <time>2018-02-25T12:57:25Z</time>
      </trkpt>
      <trkpt lat="40.987622" lon="-3.418557">
        <ele>1712.0</ele>
        <time>2018-02-25T13:05:05Z</time>
      </trkpt>
      <trkpt lat="40.987725" lon="-3.418229">
        <ele>1716.0</ele>
        <time>2018-02-25T13:14:33Z</time>
      </trkpt>
      <trkpt lat="40.987746" lon="-3.418207">
        <ele>1715.0</ele>
        <time>2018-02-25T13:14:36Z</time>
      </trkpt>
      <trkpt lat="40.987746" lon="-3.418207">
        <ele>1715.0</ele>
        <time>2018-02-25T13:14:43Z</time>
      </trkpt>
      <trkpt lat="40.987746" lon="-3.418207">
        <ele>1714.0</ele>
        <time>2018-02-25T13:14:57Z</time>
      </trkpt>
      <trkpt lat="40.987724" lon="-3.41804">
        <ele>1708.0</ele>
        <time>2018-02-25T13:14:57Z</time>
      </trkpt>
      <trkpt lat="40.9878" lon="-3.417805">
        <ele>1713.0</ele>
        <time>2018-02-25T13:15:15Z</time>
      </trkpt>
      <trkpt lat="40.9878" lon="-3.417805">
        <ele>1711.0</ele>
        <time>2018-02-25T13:15:22Z</time>
      </trkpt>
      <trkpt lat="40.9878" lon="-3.417805">
        <ele>1714.0</ele>
        <time>2018-02-25T13:15:22Z</time>
      </trkpt>
      <trkpt lat="40.9878" lon="-3.417805">
        <ele>1714.0</ele>
        <time>2018-02-25T13:15:34Z</time>
      </trkpt>
      <trkpt lat="40.987837" lon="-3.41761">
        <ele>1716.0</ele>
        <time>2018-02-25T13:15:34Z</time>
      </trkpt>
      <trkpt lat="40.987844" lon="-3.417429">
        <ele>1712.0</ele>
        <time>2018-02-25T13:15:48Z</time>
      </trkpt>
      <trkpt lat="40.987864" lon="-3.417257">
        <ele>1709.0</ele>
        <time>2018-02-25T13:16:08Z</time>
      </trkpt>
      <trkpt lat="40.988061" lon="-3.416996">
        <ele>1709.0</ele>
        <time>2018-02-25T13:17:09Z</time>
      </trkpt>
      <trkpt lat="40.988164" lon="-3.416895">
        <ele>1711.0</ele>
        <time>2018-02-25T13:17:23Z</time>
      </trkpt>
      <trkpt lat="40.988347" lon="-3.416752">
        <ele>1714.0</ele>
        <time>2018-02-25T13:17:43Z</time>
      </trkpt>
      <trkpt lat="40.9885" lon="-3.416571">
        <ele>1719.0</ele>
        <time>2018-02-25T13:18:03Z</time>
      </trkpt>
      <trkpt lat="40.988641" lon="-3.41648">
        <ele>1718.0</ele>
        <time>2018-02-25T13:18:19Z</time>
      </trkpt>
      <trkpt lat="40.988754" lon="-3.416294">
        <ele>1716.0</ele>
        <time>2018-02-25T13:18:38Z</time>
      </trkpt>
      <trkpt lat="40.988878" lon="-3.416121">
        <ele>1718.0</ele>
        <time>2018-02-25T13:18:55Z</time>
      </trkpt>
      <trkpt lat="40.989026" lon="-3.41598">
        <ele>1720.0</ele>
        <time>2018-02-25T13:19:15Z</time>
      </trkpt>
      <trkpt lat="40.989057" lon="-3.415969">
        <ele>1721.0</ele>
        <time>2018-02-25T13:19:19Z</time>
      </trkpt>
      <trkpt lat="40.989057" lon="-3.415969">
        <ele>1722.0</ele>
        <time>2018-02-25T13:19:26Z</time>
      </trkpt>
      <trkpt lat="40.989057" lon="-3.415969">
        <ele>1723.0</ele>
        <time>2018-02-25T13:19:34Z</time>
      </trkpt>
      <trkpt lat="40.989176" lon="-3.415899">
        <ele>1729.0</ele>
        <time>2018-02-25T13:19:34Z</time>
      </trkpt>
      <trkpt lat="40.989369" lon="-3.415842">
        <ele>1731.0</ele>
        <time>2018-02-25T13:19:52Z</time>
      </trkpt>
      <trkpt lat="40.98946" lon="-3.415717">
        <ele>1735.0</ele>
        <time>2018-02-25T13:20:06Z</time>
      </trkpt>
      <trkpt lat="40.98946" lon="-3.415717">
        <ele>1733.0</ele>
        <time>2018-02-25T13:20:13Z</time>
      </trkpt>
      <trkpt lat="40.98946" lon="-3.415717">
        <ele>1733.0</ele>
        <time>2018-02-25T13:20:17Z</time>
      </trkpt>
      <trkpt lat="40.989495" lon="-3.415635">
        <ele>1738.0</ele>
        <time>2018-02-25T13:20:17Z</time>
      </trkpt>
      <trkpt lat="40.989596" lon="-3.415522">
        <ele>1739.0</ele>
        <time>2018-02-25T13:20:32Z</time>
      </trkpt>
      <trkpt lat="40.989687" lon="-3.415456">
        <ele>1734.0</ele>
        <time>2018-02-25T13:20:41Z</time>
      </trkpt>
      <trkpt lat="40.989687" lon="-3.415456">
        <ele>1734.0</ele>
        <time>2018-02-25T13:20:49Z</time>
      </trkpt>
      <trkpt lat="40.989687" lon="-3.415456">
        <ele>1738.0</ele>
        <time>2018-02-25T13:20:58Z</time>
      </trkpt>
      <trkpt lat="40.989741" lon="-3.415411">
        <ele>1739.0</ele>
        <time>2018-02-25T13:20:58Z</time>
      </trkpt>
      <trkpt lat="40.990014" lon="-3.415297">
        <ele>1745.0</ele>
        <time>2018-02-25T13:22:03Z</time>
      </trkpt>
      <trkpt lat="40.990101" lon="-3.415175">
        <ele>1747.0</ele>
        <time>2018-02-25T13:22:15Z</time>
      </trkpt>
      <trkpt lat="40.990187" lon="-3.415075">
        <ele>1748.0</ele>
        <time>2018-02-25T13:22:32Z</time>
      </trkpt>
      <trkpt lat="40.99043" lon="-3.414848">
        <ele>1752.0</ele>
        <time>2018-02-25T13:23:10Z</time>
      </trkpt>
      <trkpt lat="40.990577" lon="-3.414618">
        <ele>1752.0</ele>
        <time>2018-02-25T13:23:35Z</time>
      </trkpt>
      <trkpt lat="40.990698" lon="-3.414462">
        <ele>1752.0</ele>
        <time>2018-02-25T13:23:51Z</time>
      </trkpt>
      <trkpt lat="40.990709" lon="-3.4144">
        <ele>1755.0</ele>
        <time>2018-02-25T13:23:58Z</time>
      </trkpt>
      <trkpt lat="40.990709" lon="-3.4144">
        <ele>1755.0</ele>
        <time>2018-02-25T13:24:05Z</time>
      </trkpt>
      <trkpt lat="40.990709" lon="-3.4144">
        <ele>1758.0</ele>
        <time>2018-02-25T13:26:07Z</time>
      </trkpt>
      <trkpt lat="40.990587" lon="-3.414049">
        <ele>1756.0</ele>
        <time>2018-02-25T13:26:07Z</time>
      </trkpt>
      <trkpt lat="40.990493" lon="-3.413924">
        <ele>1766.0</ele>
        <time>2018-02-25T13:26:21Z</time>
      </trkpt>
      <trkpt lat="40.990415" lon="-3.413738">
        <ele>1779.0</ele>
        <time>2018-02-25T13:26:40Z</time>
      </trkpt>
      <trkpt lat="40.990595" lon="-3.413454">
        <ele>1787.0</ele>
        <time>2018-02-25T13:28:14Z</time>
      </trkpt>
      <trkpt lat="40.990706" lon="-3.413115">
        <ele>1789.0</ele>
        <time>2018-02-25T13:28:57Z</time>
      </trkpt>
      <trkpt lat="40.990706" lon="-3.413115">
        <ele>1792.0</ele>
        <time>2018-02-25T13:29:04Z</time>
      </trkpt>
      <trkpt lat="40.990706" lon="-3.413115">
        <ele>1805.0</ele>
        <time>2018-02-25T13:29:04Z</time>
      </trkpt>
      <trkpt lat="40.990706" lon="-3.413115">
        <ele>1810.0</ele>
        <time>2018-02-25T13:29:35Z</time>
      </trkpt>
      <trkpt lat="40.990865" lon="-3.413046">
        <ele>1809.0</ele>
        <time>2018-02-25T13:29:35Z</time>
      </trkpt>
      <trkpt lat="40.990865" lon="-3.413046">
        <ele>1812.0</ele>
        <time>2018-02-25T13:29:44Z</time>
      </trkpt>
      <trkpt lat="40.990865" lon="-3.413046">
        <ele>1821.0</ele>
        <time>2018-02-25T13:29:44Z</time>
      </trkpt>
      <trkpt lat="40.990865" lon="-3.413046">
        <ele>1820.0</ele>
        <time>2018-02-25T13:30:33Z</time>
      </trkpt>
      <trkpt lat="40.991083" lon="-3.412838">
        <ele>1823.0</ele>
        <time>2018-02-25T13:30:33Z</time>
      </trkpt>
      <trkpt lat="40.991122" lon="-3.412469">
        <ele>1825.0</ele>
        <time>2018-02-25T13:31:14Z</time>
      </trkpt>
      <trkpt lat="40.991238" lon="-3.412261">
        <ele>1818.0</ele>
        <time>2018-02-25T13:31:36Z</time>
      </trkpt>
      <trkpt lat="40.991258" lon="-3.412193">
        <ele>1805.0</ele>
        <time>2018-02-25T13:31:42Z</time>
      </trkpt>
      <trkpt lat="40.991258" lon="-3.412193">
        <ele>1805.0</ele>
        <time>2018-02-25T13:31:49Z</time>
      </trkpt>
      <trkpt lat="40.991258" lon="-3.412193">
        <ele>1802.0</ele>
        <time>2018-02-25T13:31:58Z</time>
      </trkpt>
      <trkpt lat="40.991246" lon="-3.412124">
        <ele>1800.0</ele>
        <time>2018-02-25T13:31:58Z</time>
      </trkpt>
      <trkpt lat="40.991438" lon="-3.411797">
        <ele>1801.0</ele>
        <time>2018-02-25T13:32:42Z</time>
      </trkpt>
      <trkpt lat="40.991528" lon="-3.411606">
        <ele>1806.0</ele>
        <time>2018-02-25T13:33:01Z</time>
      </trkpt>
      <trkpt lat="40.991551" lon="-3.411455">
        <ele>1811.0</ele>
        <time>2018-02-25T13:33:16Z</time>
      </trkpt>
      <trkpt lat="40.991551" lon="-3.411455">
        <ele>1811.0</ele>
        <time>2018-02-25T13:33:24Z</time>
      </trkpt>
      <trkpt lat="40.991551" lon="-3.411455">
        <ele>1811.0</ele>
        <time>2018-02-25T13:33:29Z</time>
      </trkpt>
      <trkpt lat="40.991601" lon="-3.411362">
        <ele>1815.0</ele>
        <time>2018-02-25T13:33:29Z</time>
      </trkpt>
      <trkpt lat="40.991634" lon="-3.411313">
        <ele>1826.0</ele>
        <time>2018-02-25T13:33:34Z</time>
      </trkpt>
      <trkpt lat="40.991634" lon="-3.411313">
        <ele>1830.0</ele>
        <time>2018-02-25T13:33:43Z</time>
      </trkpt>
      <trkpt lat="40.991634" lon="-3.411313">
        <ele>1830.0</ele>
        <time>2018-02-25T13:33:49Z</time>
      </trkpt>
      <trkpt lat="40.991681" lon="-3.411233">
        <ele>1833.0</ele>
        <time>2018-02-25T13:33:49Z</time>
      </trkpt>
      <trkpt lat="40.991776" lon="-3.411084">
        <ele>1836.0</ele>
        <time>2018-02-25T13:34:05Z</time>
      </trkpt>
      <trkpt lat="40.991884" lon="-3.410933">
        <ele>1844.0</ele>
        <time>2018-02-25T13:34:21Z</time>
      </trkpt>
      <trkpt lat="40.991965" lon="-3.410718">
        <ele>1845.0</ele>
        <time>2018-02-25T13:34:41Z</time>
      </trkpt>
      <trkpt lat="40.991965" lon="-3.410718">
        <ele>1861.0</ele>
        <time>2018-02-25T13:34:48Z</time>
      </trkpt>
      <trkpt lat="40.991965" lon="-3.410718">
        <ele>1863.0</ele>
        <time>2018-02-25T13:34:48Z</time>
      </trkpt>
      <trkpt lat="40.991965" lon="-3.410718">
        <time>2018-02-25T13:35:02Z</time>
      </trkpt>
      <trkpt lat="40.991953" lon="-3.410543">
        <time>2018-02-25T13:35:02Z</time>
      </trkpt>
      <trkpt lat="40.992014" lon="-3.410376">
        <time>2018-02-25T13:35:23Z</time>
      </trkpt>
      <trkpt lat="40.992183" lon="-3.410057">
        <time>2018-02-25T13:36:27Z</time>
      </trkpt>
      <trkpt lat="40.992354" lon="-3.409759">
        <time>2018-02-25T13:37:27Z</time>
      </trkpt>
      <trkpt lat="40.992431" lon="-3.409599">
        <time>2018-02-25T13:37:43Z</time>
      </trkpt>
      <trkpt lat="40.992543" lon="-3.40943">
        <time>2018-02-25T13:37:59Z</time>
      </trkpt>
      <trkpt lat="40.992711" lon="-3.409266">
        <time>2018-02-25T13:38:22Z</time>
      </trkpt>
      <trkpt lat="40.992781" lon="-3.409165">
        <time>2018-02-25T13:38:32Z</time>
      </trkpt>
      <trkpt lat="40.992864" lon="-3.409046">
        <time>2018-02-25T13:38:46Z</time>
      </trkpt>
      <trkpt lat="40.992988" lon="-3.408737">
        <time>2018-02-25T13:39:18Z</time>
      </trkpt>
      <trkpt lat="40.993017" lon="-3.408597">
        <time>2018-02-25T13:39:35Z</time>
      </trkpt>
      <trkpt lat="40.993091" lon="-3.408256">
        <time>2018-02-25T13:40:11Z</time>
      </trkpt>
      <trkpt lat="40.993109" lon="-3.408064">
        <time>2018-02-25T13:40:32Z</time>
      </trkpt>
      <trkpt lat="40.993251" lon="-3.407706">
        <time>2018-02-25T13:41:14Z</time>
      </trkpt>
      <trkpt lat="40.993397" lon="-3.407569">
        <time>2018-02-25T13:41:33Z</time>
      </trkpt>
      <trkpt lat="40.993492" lon="-3.407527">
        <time>2018-02-25T13:41:44Z</time>
      </trkpt>
      <trkpt lat="40.99374" lon="-3.407336">
        <time>2018-02-25T13:42:22Z</time>
      </trkpt>
      <trkpt lat="40.993757" lon="-3.407279">
        <time>2018-02-25T13:42:29Z</time>
      </trkpt>
      <trkpt lat="40.993757" lon="-3.407279">
        <time>2018-02-25T13:42:36Z</time>
      </trkpt>
      <trkpt lat="40.993757" lon="-3.407279">
        <time>2018-02-25T13:42:42Z</time>
      </trkpt>
      <trkpt lat="40.993737" lon="-3.407156">
        <time>2018-02-25T13:42:42Z</time>
      </trkpt>
      <trkpt lat="40.993745" lon="-3.406969">
        <time>2018-02-25T13:42:58Z</time>
      </trkpt>
      <trkpt lat="40.993737" lon="-3.406794">
        <time>2018-02-25T13:43:14Z</time>
      </trkpt>
      <trkpt lat="40.993737" lon="-3.406794">
        <time>2018-02-25T13:43:21Z</time>
      </trkpt>
      <trkpt lat="40.993737" lon="-3.406794">
        <time>2018-02-25T13:43:27Z</time>
      </trkpt>
      <trkpt lat="40.993755" lon="-3.406679">
        <time>2018-02-25T13:43:27Z</time>
      </trkpt>
      <trkpt lat="40.993755" lon="-3.406679">
        <time>2018-02-25T13:43:35Z</time>
      </trkpt>
      <trkpt lat="40.993755" lon="-3.406679">
        <time>2018-02-25T13:43:35Z</time>
      </trkpt>
      <trkpt lat="40.993755" lon="-3.406679">
        <time>2018-02-25T13:43:44Z</time>
      </trkpt>
      <trkpt lat="40.993849" lon="-3.406601">
        <time>2018-02-25T13:43:44Z</time>
      </trkpt>
      <trkpt lat="40.993937" lon="-3.406532">
        <time>2018-02-25T13:43:55Z</time>
      </trkpt>
      <trkpt lat="40.994063" lon="-3.406419">
        <time>2018-02-25T13:44:11Z</time>
      </trkpt>
      <trkpt lat="40.994115" lon="-3.406236">
        <time>2018-02-25T13:44:30Z</time>
      </trkpt>
      <trkpt lat="40.994219" lon="-3.405931">
        <time>2018-02-25T13:45:06Z</time>
      </trkpt>
      <trkpt lat="40.994341" lon="-3.405575">
        <time>2018-02-25T13:45:48Z</time>
      </trkpt>
      <trkpt lat="40.994381" lon="-3.405204">
        <time>2018-02-25T13:46:59Z</time>
      </trkpt>
      <trkpt lat="40.994373" lon="-3.405037">
        <time>2018-02-25T13:47:12Z</time>
      </trkpt>
      <trkpt lat="40.994385" lon="-3.404867">
        <time>2018-02-25T13:47:29Z</time>
      </trkpt>
      <trkpt lat="40.994434" lon="-3.404689">
        <time>2018-02-25T13:47:48Z</time>
      </trkpt>
      <trkpt lat="40.99449" lon="-3.404298">
        <time>2018-02-25T13:48:35Z</time>
      </trkpt>
      <trkpt lat="40.994623" lon="-3.403919">
        <time>2018-02-25T13:49:36Z</time>
      </trkpt>
      <trkpt lat="40.9947" lon="-3.403539">
        <time>2018-02-25T13:50:27Z</time>
      </trkpt>
      <trkpt lat="40.994768" lon="-3.40318">
        <time>2018-02-25T13:51:26Z</time>
      </trkpt>
      <trkpt lat="40.994853" lon="-3.40279">
        <time>2018-02-25T13:52:50Z</time>
      </trkpt>
      <trkpt lat="40.994868" lon="-3.402656">
        <time>2018-02-25T13:53:04Z</time>
      </trkpt>
      <trkpt lat="40.994868" lon="-3.402656">
        <time>2018-02-25T13:53:12Z</time>
      </trkpt>
      <trkpt lat="40.994868" lon="-3.402656">
        <time>2018-02-25T13:54:16Z</time>
      </trkpt>
      <trkpt lat="40.995024" lon="-3.402307">
        <time>2018-02-25T13:54:16Z</time>
      </trkpt>
      <trkpt lat="40.995094" lon="-3.401909">
        <time>2018-02-25T13:55:21Z</time>
      </trkpt>
      <trkpt lat="40.995212" lon="-3.401552">
        <time>2018-02-25T13:56:11Z</time>
      </trkpt>
      <trkpt lat="40.995128" lon="-3.401231">
        <time>2018-02-25T13:57:02Z</time>
      </trkpt>
      <trkpt lat="40.995046" lon="-3.401057">
        <time>2018-02-25T13:57:23Z</time>
      </trkpt>
      <trkpt lat="40.995185" lon="-3.400758">
        <time>2018-02-25T13:58:44Z</time>
      </trkpt>
      <trkpt lat="40.995428" lon="-3.400591">
        <time>2018-02-25T13:59:21Z</time>
      </trkpt>
      <trkpt lat="40.995541" lon="-3.400517">
        <time>2018-02-25T13:59:36Z</time>
      </trkpt>
      <trkpt lat="40.995793" lon="-3.400396">
        <time>2018-02-25T14:01:04Z</time>
      </trkpt>
      <trkpt lat="40.996077" lon="-3.400294">
        <time>2018-02-25T14:01:58Z</time>
      </trkpt>
      <trkpt lat="40.996311" lon="-3.400116">
        <time>2018-02-25T14:02:52Z</time>
      </trkpt>
      <trkpt lat="40.996525" lon="-3.399825">
        <time>2018-02-25T14:03:49Z</time>
      </trkpt>
      <trkpt lat="40.996646" lon="-3.399746">
        <time>2018-02-25T14:04:06Z</time>
      </trkpt>
      <trkpt lat="40.996749" lon="-3.399706">
        <time>2018-02-25T14:04:16Z</time>
      </trkpt>
      <trkpt lat="40.996821" lon="-3.399665">
        <time>2018-02-25T14:04:25Z</time>
      </trkpt>
      <trkpt lat="40.997079" lon="-3.399538">
        <time>2018-02-25T14:04:59Z</time>
      </trkpt>
      <trkpt lat="40.99717" lon="-3.399427">
        <time>2018-02-25T14:05:15Z</time>
      </trkpt>
      <trkpt lat="40.997317" lon="-3.399148">
        <time>2018-02-25T14:06:03Z</time>
      </trkpt>
      <trkpt lat="40.997317" lon="-3.399148">
        <time>2018-02-25T14:06:11Z</time>
      </trkpt>
      <trkpt lat="40.997317" lon="-3.399148">
        <time>2018-02-25T14:06:11Z</time>
      </trkpt>
      <trkpt lat="40.997317" lon="-3.399148">
        <time>2018-02-25T14:07:13Z</time>
      </trkpt>
      <trkpt lat="40.997506" lon="-3.398917">
        <time>2018-02-25T14:07:13Z</time>
      </trkpt>
      <trkpt lat="40.997794" lon="-3.398803">
        <time>2018-02-25T14:08:17Z</time>
      </trkpt>
      <trkpt lat="40.997903" lon="-3.398674">
        <time>2018-02-25T14:08:33Z</time>
      </trkpt>
      <trkpt lat="40.997903" lon="-3.398674">
        <time>2018-02-25T14:08:40Z</time>
      </trkpt>
      <trkpt lat="40.997903" lon="-3.398674">
        <time>2018-02-25T14:08:40Z</time>
      </trkpt>
      <trkpt lat="40.997903" lon="-3.398674">
        <time>2018-02-25T14:09:36Z</time>
      </trkpt>
      <trkpt lat="40.998163" lon="-3.398394">
        <time>2018-02-25T14:09:36Z</time>
      </trkpt>
      <trkpt lat="40.998302" lon="-3.398081">
        <time>2018-02-25T14:10:24Z</time>
      </trkpt>
      <trkpt lat="40.998455" lon="-3.397753">
        <time>2018-02-25T14:11:14Z</time>
      </trkpt>
      <trkpt lat="40.998631" lon="-3.397457">
        <time>2018-02-25T14:12:19Z</time>
      </trkpt>
      <trkpt lat="40.998849" lon="-3.397164">
        <time>2018-02-25T14:13:20Z</time>
      </trkpt>
      <trkpt lat="40.99905" lon="-3.396921">
        <time>2018-02-25T14:14:18Z</time>
      </trkpt>
      <trkpt lat="40.99905" lon="-3.396921">
        <time>2018-02-25T14:14:18Z</time>
      </trkpt>
    </trkseg>
  </trk>
</gpx>
